<?xml version="1.0" encoding="UTF-8" standalone="no" ?>
<gpx xmlns="http://www.topografix.com/GPX/1/1" xmlns:xsi="http://www.w3.org/2001/XMLSchema-instance" xsi:schemaLocation="http://www.topografix.com/GPX/1/1 http://www.topografix.com/GPX/1/1/gpx.xsd" version="1.1" creator="VisuGPX - https://www.visugpx.com">
  <metadata>
    <name>06/08/2013</name>
    <desc><![CDATA[06/08/2013]]></desc>
  </metadata>
  <wpt lat="48.72367" lon="2.09835">
    <ele>159.8</ele>
    <name><![CDATA[Start]]></name>
    <desc><![CDATA[2013-08-06 05:04:48]]></desc>
  </wpt>
  <wpt lat="48.76258" lon="2.08354">
    <ele>159.1</ele>
    <name><![CDATA[Lap 1]]></name>
    <desc><![CDATA[8.76km, 31:43, 16.6kph]]></desc>
  </wpt>
  <wpt lat="48.72362" lon="2.09898">
    <ele>160</ele>
    <name><![CDATA[Lap 2]]></name>
    <desc><![CDATA[23.12km, 77:40, 17.9kph]]></desc>
  </wpt>
  <trk>
    <name><![CDATA[2013-08-06-05-04-48]]></name>
    <desc><![CDATA[109:23 - 31.9km]]></desc>
    <trkseg>
      <trkpt lat="48.72367" lon="2.09835">
        <ele>166.673</ele>
        <time>2013-08-06T05:04:49Z</time>
      </trkpt>
      <trkpt lat="48.72375" lon="2.09785">
        <ele>166.226</ele>
        <time>2013-08-06T05:04:59Z</time>
      </trkpt>
      <trkpt lat="48.72382" lon="2.09741">
        <ele>165.859</ele>
        <time>2013-08-06T05:05:07Z</time>
      </trkpt>
      <trkpt lat="48.72389" lon="2.09696">
        <ele>165.367</ele>
        <time>2013-08-06T05:05:15Z</time>
      </trkpt>
      <trkpt lat="48.72389" lon="2.0966">
        <ele>165.095</ele>
        <time>2013-08-06T05:05:21Z</time>
      </trkpt>
      <trkpt lat="48.72389" lon="2.09606">
        <ele>164.849</ele>
        <time>2013-08-06T05:05:30Z</time>
      </trkpt>
      <trkpt lat="48.72389" lon="2.09559">
        <ele>164.746</ele>
        <time>2013-08-06T05:05:38Z</time>
      </trkpt>
      <trkpt lat="48.72389" lon="2.09496">
        <ele>164.985</ele>
        <time>2013-08-06T05:05:49Z</time>
      </trkpt>
      <trkpt lat="48.72388" lon="2.09457">
        <ele>165.08</ele>
        <time>2013-08-06T05:05:56Z</time>
      </trkpt>
      <trkpt lat="48.72376" lon="2.09438">
        <ele>165.437</ele>
        <time>2013-08-06T05:06:01Z</time>
      </trkpt>
      <trkpt lat="48.72355" lon="2.09416">
        <ele>166.165</ele>
        <time>2013-08-06T05:06:09Z</time>
      </trkpt>
      <trkpt lat="48.7234" lon="2.09402">
        <ele>166.709</ele>
        <time>2013-08-06T05:06:14Z</time>
      </trkpt>
      <trkpt lat="48.72314" lon="2.09376">
        <ele>167.314</ele>
        <time>2013-08-06T05:06:23Z</time>
      </trkpt>
      <trkpt lat="48.7228" lon="2.09341">
        <ele>168.128</ele>
        <time>2013-08-06T05:06:35Z</time>
      </trkpt>
      <trkpt lat="48.72253" lon="2.09317">
        <ele>168.802</ele>
        <time>2013-08-06T05:06:44Z</time>
      </trkpt>
      <trkpt lat="48.7223" lon="2.09293">
        <ele>169.424</ele>
        <time>2013-08-06T05:06:52Z</time>
      </trkpt>
      <trkpt lat="48.722" lon="2.09263">
        <ele>169.654</ele>
        <time>2013-08-06T05:07:02Z</time>
      </trkpt>
      <trkpt lat="48.72191" lon="2.09253">
        <ele>169.732</ele>
        <time>2013-08-06T05:07:05Z</time>
      </trkpt>
      <trkpt lat="48.72155" lon="2.09216">
        <ele>169.395</ele>
        <time>2013-08-06T05:07:17Z</time>
      </trkpt>
      <trkpt lat="48.72152" lon="2.09213">
        <ele>169.345</ele>
        <time>2013-08-06T05:07:18Z</time>
      </trkpt>
      <trkpt lat="48.72154" lon="2.09193">
        <ele>169.359</ele>
        <time>2013-08-06T05:07:22Z</time>
      </trkpt>
      <trkpt lat="48.72182" lon="2.09153">
        <ele>169.103</ele>
        <time>2013-08-06T05:07:32Z</time>
      </trkpt>
      <trkpt lat="48.72207" lon="2.0912">
        <ele>169.101</ele>
        <time>2013-08-06T05:07:41Z</time>
      </trkpt>
      <trkpt lat="48.72236" lon="2.09084">
        <ele>169.159</ele>
        <time>2013-08-06T05:07:51Z</time>
      </trkpt>
      <trkpt lat="48.72259" lon="2.09057">
        <ele>169.048</ele>
        <time>2013-08-06T05:07:59Z</time>
      </trkpt>
      <trkpt lat="48.72293" lon="2.09013">
        <ele>168.84</ele>
        <time>2013-08-06T05:08:11Z</time>
      </trkpt>
      <trkpt lat="48.72305" lon="2.08994">
        <ele>169.04</ele>
        <time>2013-08-06T05:08:18Z</time>
      </trkpt>
      <trkpt lat="48.72309" lon="2.08986">
        <ele>169.05</ele>
        <time>2013-08-06T05:08:23Z</time>
      </trkpt>
      <trkpt lat="48.72312" lon="2.0898">
        <ele>169.182</ele>
        <time>2013-08-06T05:08:29Z</time>
      </trkpt>
      <trkpt lat="48.72321" lon="2.08965">
        <ele>169.196</ele>
        <time>2013-08-06T05:08:33Z</time>
      </trkpt>
      <trkpt lat="48.72329" lon="2.08951">
        <ele>169.069</ele>
        <time>2013-08-06T05:08:36Z</time>
      </trkpt>
      <trkpt lat="48.72334" lon="2.08941">
        <ele>169.09</ele>
        <time>2013-08-06T05:08:38Z</time>
      </trkpt>
      <trkpt lat="48.72361" lon="2.0889">
        <ele>169.39</ele>
        <time>2013-08-06T05:08:49Z</time>
      </trkpt>
      <trkpt lat="48.72383" lon="2.08843">
        <ele>169.514</ele>
        <time>2013-08-06T05:08:59Z</time>
      </trkpt>
      <trkpt lat="48.72401" lon="2.08792">
        <ele>169.289</ele>
        <time>2013-08-06T05:09:09Z</time>
      </trkpt>
      <trkpt lat="48.72424" lon="2.08732">
        <ele>169.58</ele>
        <time>2013-08-06T05:09:21Z</time>
      </trkpt>
      <trkpt lat="48.72446" lon="2.08682">
        <ele>169.963</ele>
        <time>2013-08-06T05:09:32Z</time>
      </trkpt>
      <trkpt lat="48.72468" lon="2.08633">
        <ele>170.37</ele>
        <time>2013-08-06T05:09:42Z</time>
      </trkpt>
      <trkpt lat="48.72489" lon="2.08583">
        <ele>170.646</ele>
        <time>2013-08-06T05:09:52Z</time>
      </trkpt>
      <trkpt lat="48.72504" lon="2.0854">
        <ele>170.778</ele>
        <time>2013-08-06T05:10:00Z</time>
      </trkpt>
      <trkpt lat="48.72523" lon="2.08487">
        <ele>171.205</ele>
        <time>2013-08-06T05:10:10Z</time>
      </trkpt>
      <trkpt lat="48.72546" lon="2.08436">
        <ele>171.138</ele>
        <time>2013-08-06T05:10:20Z</time>
      </trkpt>
      <trkpt lat="48.72583" lon="2.08371">
        <ele>171.52</ele>
        <time>2013-08-06T05:10:34Z</time>
      </trkpt>
      <trkpt lat="48.72615" lon="2.08317">
        <ele>171.849</ele>
        <time>2013-08-06T05:10:46Z</time>
      </trkpt>
      <trkpt lat="48.72633" lon="2.08301">
        <ele>171.779</ele>
        <time>2013-08-06T05:10:51Z</time>
      </trkpt>
      <trkpt lat="48.72682" lon="2.08282">
        <ele>170.976</ele>
        <time>2013-08-06T05:11:02Z</time>
      </trkpt>
      <trkpt lat="48.72704" lon="2.08274">
        <ele>170.643</ele>
        <time>2013-08-06T05:11:07Z</time>
      </trkpt>
      <trkpt lat="48.72717" lon="2.08258">
        <ele>170.461</ele>
        <time>2013-08-06T05:11:11Z</time>
      </trkpt>
      <trkpt lat="48.72717" lon="2.0824">
        <ele>170.468</ele>
        <time>2013-08-06T05:11:14Z</time>
      </trkpt>
      <trkpt lat="48.72718" lon="2.08207">
        <ele>171.022</ele>
        <time>2013-08-06T05:11:20Z</time>
      </trkpt>
      <trkpt lat="48.72723" lon="2.08198">
        <ele>171.341</ele>
        <time>2013-08-06T05:11:22Z</time>
      </trkpt>
      <trkpt lat="48.72739" lon="2.08186">
        <ele>171.38</ele>
        <time>2013-08-06T05:11:26Z</time>
      </trkpt>
      <trkpt lat="48.72793" lon="2.08164">
        <ele>170.905</ele>
        <time>2013-08-06T05:11:38Z</time>
      </trkpt>
      <trkpt lat="48.72839" lon="2.08147">
        <ele>170.658</ele>
        <time>2013-08-06T05:11:48Z</time>
      </trkpt>
      <trkpt lat="48.72844" lon="2.08146">
        <ele>170.62</ele>
        <time>2013-08-06T05:11:49Z</time>
      </trkpt>
      <trkpt lat="48.7286" lon="2.0815">
        <ele>170.559</ele>
        <time>2013-08-06T05:11:53Z</time>
      </trkpt>
      <trkpt lat="48.72876" lon="2.08153">
        <ele>170.591</ele>
        <time>2013-08-06T05:11:57Z</time>
      </trkpt>
      <trkpt lat="48.72879" lon="2.08149">
        <ele>170.65</ele>
        <time>2013-08-06T05:11:58Z</time>
      </trkpt>
      <trkpt lat="48.729" lon="2.08134">
        <ele>170.694</ele>
        <time>2013-08-06T05:12:04Z</time>
      </trkpt>
      <trkpt lat="48.72933" lon="2.08122">
        <ele>169.994</ele>
        <time>2013-08-06T05:12:12Z</time>
      </trkpt>
      <trkpt lat="48.72957" lon="2.08113">
        <ele>169.566</ele>
        <time>2013-08-06T05:12:17Z</time>
      </trkpt>
      <trkpt lat="48.72975" lon="2.08118">
        <ele>169.167</ele>
        <time>2013-08-06T05:12:21Z</time>
      </trkpt>
      <trkpt lat="48.72987" lon="2.08127">
        <ele>168.693</ele>
        <time>2013-08-06T05:12:24Z</time>
      </trkpt>
      <trkpt lat="48.73006" lon="2.0813">
        <ele>168.11</ele>
        <time>2013-08-06T05:12:29Z</time>
      </trkpt>
      <trkpt lat="48.73023" lon="2.08122">
        <ele>167.409</ele>
        <time>2013-08-06T05:12:34Z</time>
      </trkpt>
      <trkpt lat="48.73027" lon="2.08124">
        <ele>167.191</ele>
        <time>2013-08-06T05:12:35Z</time>
      </trkpt>
      <trkpt lat="48.73037" lon="2.08131">
        <ele>167.084</ele>
        <time>2013-08-06T05:12:37Z</time>
      </trkpt>
      <trkpt lat="48.73058" lon="2.08142">
        <ele>166.399</ele>
        <time>2013-08-06T05:12:42Z</time>
      </trkpt>
      <trkpt lat="48.73074" lon="2.08162">
        <ele>165.992</ele>
        <time>2013-08-06T05:12:46Z</time>
      </trkpt>
      <trkpt lat="48.73085" lon="2.08176">
        <ele>166.423</ele>
        <time>2013-08-06T05:12:50Z</time>
      </trkpt>
      <trkpt lat="48.73095" lon="2.08187">
        <ele>166.814</ele>
        <time>2013-08-06T05:12:54Z</time>
      </trkpt>
      <trkpt lat="48.73113" lon="2.08188">
        <ele>166.933</ele>
        <time>2013-08-06T05:12:58Z</time>
      </trkpt>
      <trkpt lat="48.73124" lon="2.08176">
        <ele>166.855</ele>
        <time>2013-08-06T05:13:01Z</time>
      </trkpt>
      <trkpt lat="48.73145" lon="2.08155">
        <ele>165.995</ele>
        <time>2013-08-06T05:13:07Z</time>
      </trkpt>
      <trkpt lat="48.73154" lon="2.08161">
        <ele>165.308</ele>
        <time>2013-08-06T05:13:09Z</time>
      </trkpt>
      <trkpt lat="48.73184" lon="2.08187">
        <ele>163.396</ele>
        <time>2013-08-06T05:13:16Z</time>
      </trkpt>
      <trkpt lat="48.73206" lon="2.08206">
        <ele>161.979</ele>
        <time>2013-08-06T05:13:21Z</time>
      </trkpt>
      <trkpt lat="48.73228" lon="2.08224">
        <ele>159.019</ele>
        <time>2013-08-06T05:13:26Z</time>
      </trkpt>
      <trkpt lat="48.73242" lon="2.08241">
        <ele>155.875</ele>
        <time>2013-08-06T05:13:31Z</time>
      </trkpt>
      <trkpt lat="48.7325" lon="2.08257">
        <ele>154.129</ele>
        <time>2013-08-06T05:13:34Z</time>
      </trkpt>
      <trkpt lat="48.73272" lon="2.08294">
        <ele>148.346</ele>
        <time>2013-08-06T05:13:40Z</time>
      </trkpt>
      <trkpt lat="48.73282" lon="2.08318">
        <ele>145.88</ele>
        <time>2013-08-06T05:13:43Z</time>
      </trkpt>
      <trkpt lat="48.73302" lon="2.08356">
        <ele>140.64</ele>
        <time>2013-08-06T05:13:47Z</time>
      </trkpt>
      <trkpt lat="48.73333" lon="2.08407">
        <ele>133.65</ele>
        <time>2013-08-06T05:13:52Z</time>
      </trkpt>
      <trkpt lat="48.73357" lon="2.08435">
        <ele>129.142</ele>
        <time>2013-08-06T05:13:56Z</time>
      </trkpt>
      <trkpt lat="48.73364" lon="2.08448">
        <ele>127.511</ele>
        <time>2013-08-06T05:13:58Z</time>
      </trkpt>
      <trkpt lat="48.73382" lon="2.08458">
        <ele>124.858</ele>
        <time>2013-08-06T05:14:02Z</time>
      </trkpt>
      <trkpt lat="48.73396" lon="2.08449">
        <ele>123.723</ele>
        <time>2013-08-06T05:14:05Z</time>
      </trkpt>
      <trkpt lat="48.73421" lon="2.08429">
        <ele>123.446</ele>
        <time>2013-08-06T05:14:11Z</time>
      </trkpt>
      <trkpt lat="48.73433" lon="2.08418">
        <ele>123.616</ele>
        <time>2013-08-06T05:14:14Z</time>
      </trkpt>
      <trkpt lat="48.73437" lon="2.08414">
        <ele>123.665</ele>
        <time>2013-08-06T05:14:15Z</time>
      </trkpt>
      <trkpt lat="48.73448" lon="2.08397">
        <ele>123.373</ele>
        <time>2013-08-06T05:14:18Z</time>
      </trkpt>
      <trkpt lat="48.7346" lon="2.08372">
        <ele>122.359</ele>
        <time>2013-08-06T05:14:21Z</time>
      </trkpt>
      <trkpt lat="48.73482" lon="2.08354">
        <ele>120.504</ele>
        <time>2013-08-06T05:14:25Z</time>
      </trkpt>
      <trkpt lat="48.73521" lon="2.08344">
        <ele>119.718</ele>
        <time>2013-08-06T05:14:32Z</time>
      </trkpt>
      <trkpt lat="48.73557" lon="2.0832">
        <ele>118.657</ele>
        <time>2013-08-06T05:14:38Z</time>
      </trkpt>
      <trkpt lat="48.73592" lon="2.083">
        <ele>117.367</ele>
        <time>2013-08-06T05:14:44Z</time>
      </trkpt>
      <trkpt lat="48.73637" lon="2.08289">
        <ele>116.788</ele>
        <time>2013-08-06T05:14:52Z</time>
      </trkpt>
      <trkpt lat="48.73663" lon="2.08289">
        <ele>117.369</ele>
        <time>2013-08-06T05:14:57Z</time>
      </trkpt>
      <trkpt lat="48.73682" lon="2.08289">
        <ele>117.954</ele>
        <time>2013-08-06T05:15:01Z</time>
      </trkpt>
      <trkpt lat="48.73713" lon="2.0828">
        <ele>119.087</ele>
        <time>2013-08-06T05:15:08Z</time>
      </trkpt>
      <trkpt lat="48.73741" lon="2.08263">
        <ele>120.102</ele>
        <time>2013-08-06T05:15:15Z</time>
      </trkpt>
      <trkpt lat="48.73745" lon="2.08261">
        <ele>120.172</ele>
        <time>2013-08-06T05:15:16Z</time>
      </trkpt>
      <trkpt lat="48.73762" lon="2.08245">
        <ele>120.101</ele>
        <time>2013-08-06T05:15:20Z</time>
      </trkpt>
      <trkpt lat="48.73791" lon="2.08203">
        <ele>119.134</ele>
        <time>2013-08-06T05:15:28Z</time>
      </trkpt>
      <trkpt lat="48.73812" lon="2.08174">
        <ele>118.88</ele>
        <time>2013-08-06T05:15:34Z</time>
      </trkpt>
      <trkpt lat="48.7383" lon="2.08147">
        <ele>118.839</ele>
        <time>2013-08-06T05:15:40Z</time>
      </trkpt>
      <trkpt lat="48.73844" lon="2.08129">
        <ele>118.842</ele>
        <time>2013-08-06T05:15:44Z</time>
      </trkpt>
      <trkpt lat="48.73866" lon="2.08103">
        <ele>118.481</ele>
        <time>2013-08-06T05:15:50Z</time>
      </trkpt>
      <trkpt lat="48.73887" lon="2.08091">
        <ele>118.23</ele>
        <time>2013-08-06T05:15:56Z</time>
      </trkpt>
      <trkpt lat="48.73904" lon="2.08101">
        <ele>117.989</ele>
        <time>2013-08-06T05:16:00Z</time>
      </trkpt>
      <trkpt lat="48.73916" lon="2.08116">
        <ele>117.678</ele>
        <time>2013-08-06T05:16:04Z</time>
      </trkpt>
      <trkpt lat="48.73935" lon="2.0813">
        <ele>117.985</ele>
        <time>2013-08-06T05:16:09Z</time>
      </trkpt>
      <trkpt lat="48.73962" lon="2.08134">
        <ele>118.06</ele>
        <time>2013-08-06T05:16:15Z</time>
      </trkpt>
      <trkpt lat="48.73972" lon="2.08126">
        <ele>117.919</ele>
        <time>2013-08-06T05:16:18Z</time>
      </trkpt>
      <trkpt lat="48.73979" lon="2.08119">
        <ele>117.795</ele>
        <time>2013-08-06T05:16:20Z</time>
      </trkpt>
      <trkpt lat="48.73992" lon="2.08095">
        <ele>117.716</ele>
        <time>2013-08-06T05:16:25Z</time>
      </trkpt>
      <trkpt lat="48.73992" lon="2.08071">
        <ele>117.733</ele>
        <time>2013-08-06T05:16:29Z</time>
      </trkpt>
      <trkpt lat="48.73995" lon="2.08034">
        <ele>117.849</ele>
        <time>2013-08-06T05:16:34Z</time>
      </trkpt>
      <trkpt lat="48.73998" lon="2.0802">
        <ele>117.825</ele>
        <time>2013-08-06T05:16:36Z</time>
      </trkpt>
      <trkpt lat="48.74005" lon="2.07994">
        <ele>117.846</ele>
        <time>2013-08-06T05:16:40Z</time>
      </trkpt>
      <trkpt lat="48.74016" lon="2.07959">
        <ele>117.744</ele>
        <time>2013-08-06T05:16:46Z</time>
      </trkpt>
      <trkpt lat="48.74034" lon="2.07917">
        <ele>117.999</ele>
        <time>2013-08-06T05:16:54Z</time>
      </trkpt>
      <trkpt lat="48.74044" lon="2.07895">
        <ele>118.009</ele>
        <time>2013-08-06T05:16:58Z</time>
      </trkpt>
      <trkpt lat="48.74065" lon="2.0789">
        <ele>117.281</ele>
        <time>2013-08-06T05:17:03Z</time>
      </trkpt>
      <trkpt lat="48.74075" lon="2.07895">
        <ele>117.103</ele>
        <time>2013-08-06T05:17:05Z</time>
      </trkpt>
      <trkpt lat="48.74088" lon="2.07903">
        <ele>116.569</ele>
        <time>2013-08-06T05:17:08Z</time>
      </trkpt>
      <trkpt lat="48.74104" lon="2.07914">
        <ele>116.162</ele>
        <time>2013-08-06T05:17:12Z</time>
      </trkpt>
      <trkpt lat="48.74124" lon="2.0793">
        <ele>116.535</ele>
        <time>2013-08-06T05:17:18Z</time>
      </trkpt>
      <trkpt lat="48.74137" lon="2.07942">
        <ele>116.871</ele>
        <time>2013-08-06T05:17:22Z</time>
      </trkpt>
      <trkpt lat="48.74159" lon="2.07948">
        <ele>117.433</ele>
        <time>2013-08-06T05:17:28Z</time>
      </trkpt>
      <trkpt lat="48.74174" lon="2.07947">
        <ele>117.981</ele>
        <time>2013-08-06T05:17:33Z</time>
      </trkpt>
      <trkpt lat="48.74187" lon="2.07945">
        <ele>118.442</ele>
        <time>2013-08-06T05:17:37Z</time>
      </trkpt>
      <trkpt lat="48.74202" lon="2.07939">
        <ele>119.137</ele>
        <time>2013-08-06T05:17:42Z</time>
      </trkpt>
      <trkpt lat="48.74216" lon="2.07906">
        <ele>119.876</ele>
        <time>2013-08-06T05:17:49Z</time>
      </trkpt>
      <trkpt lat="48.74215" lon="2.07879">
        <ele>119.733</ele>
        <time>2013-08-06T05:17:54Z</time>
      </trkpt>
      <trkpt lat="48.74214" lon="2.07858">
        <ele>119.679</ele>
        <time>2013-08-06T05:17:58Z</time>
      </trkpt>
      <trkpt lat="48.74216" lon="2.0783">
        <ele>119.699</ele>
        <time>2013-08-06T05:18:03Z</time>
      </trkpt>
      <trkpt lat="48.74223" lon="2.07805">
        <ele>120.057</ele>
        <time>2013-08-06T05:18:08Z</time>
      </trkpt>
      <trkpt lat="48.74231" lon="2.07787">
        <ele>121.007</ele>
        <time>2013-08-06T05:18:14Z</time>
      </trkpt>
      <trkpt lat="48.74235" lon="2.07777">
        <ele>121.658</ele>
        <time>2013-08-06T05:18:19Z</time>
      </trkpt>
      <trkpt lat="48.74241" lon="2.07767">
        <ele>122.846</ele>
        <time>2013-08-06T05:18:25Z</time>
      </trkpt>
      <trkpt lat="48.74247" lon="2.0776">
        <ele>123.786</ele>
        <time>2013-08-06T05:18:30Z</time>
      </trkpt>
      <trkpt lat="48.74256" lon="2.0775">
        <ele>125.029</ele>
        <time>2013-08-06T05:18:37Z</time>
      </trkpt>
      <trkpt lat="48.74264" lon="2.07742">
        <ele>126.218</ele>
        <time>2013-08-06T05:18:43Z</time>
      </trkpt>
      <trkpt lat="48.74267" lon="2.07739">
        <ele>126.662</ele>
        <time>2013-08-06T05:18:46Z</time>
      </trkpt>
      <trkpt lat="48.74274" lon="2.07738">
        <ele>127.62</ele>
        <time>2013-08-06T05:18:50Z</time>
      </trkpt>
      <trkpt lat="48.74276" lon="2.07738">
        <ele>128.062</ele>
        <time>2013-08-06T05:18:52Z</time>
      </trkpt>
      <trkpt lat="48.74279" lon="2.07743">
        <ele>128.895</ele>
        <time>2013-08-06T05:18:56Z</time>
      </trkpt>
      <trkpt lat="48.7428" lon="2.07763">
        <ele>130.559</ele>
        <time>2013-08-06T05:19:05Z</time>
      </trkpt>
      <trkpt lat="48.74279" lon="2.07773">
        <ele>131.139</ele>
        <time>2013-08-06T05:19:09Z</time>
      </trkpt>
      <trkpt lat="48.74276" lon="2.07789">
        <ele>132.257</ele>
        <time>2013-08-06T05:19:15Z</time>
      </trkpt>
      <trkpt lat="48.74275" lon="2.0781">
        <ele>133.857</ele>
        <time>2013-08-06T05:19:23Z</time>
      </trkpt>
      <trkpt lat="48.74276" lon="2.07824">
        <ele>134.679</ele>
        <time>2013-08-06T05:19:28Z</time>
      </trkpt>
      <trkpt lat="48.74279" lon="2.07838">
        <ele>135.543</ele>
        <time>2013-08-06T05:19:35Z</time>
      </trkpt>
      <trkpt lat="48.74281" lon="2.07841">
        <ele>135.9</ele>
        <time>2013-08-06T05:19:37Z</time>
      </trkpt>
      <trkpt lat="48.74288" lon="2.07852">
        <ele>137.068</ele>
        <time>2013-08-06T05:19:44Z</time>
      </trkpt>
      <trkpt lat="48.74297" lon="2.07864">
        <ele>138.467</ele>
        <time>2013-08-06T05:19:52Z</time>
      </trkpt>
      <trkpt lat="48.74297" lon="2.07865">
        <ele>138.603</ele>
        <time>2013-08-06T05:19:53Z</time>
      </trkpt>
      <trkpt lat="48.74304" lon="2.07873">
        <ele>139.597</ele>
        <time>2013-08-06T05:20:00Z</time>
      </trkpt>
      <trkpt lat="48.7431" lon="2.0788">
        <ele>140.523</ele>
        <time>2013-08-06T05:20:06Z</time>
      </trkpt>
      <trkpt lat="48.74316" lon="2.0789">
        <ele>141.635</ele>
        <time>2013-08-06T05:20:12Z</time>
      </trkpt>
      <trkpt lat="48.74317" lon="2.07891">
        <ele>141.774</ele>
        <time>2013-08-06T05:20:13Z</time>
      </trkpt>
      <trkpt lat="48.74325" lon="2.079">
        <ele>142.847</ele>
        <time>2013-08-06T05:20:19Z</time>
      </trkpt>
      <trkpt lat="48.74331" lon="2.07906">
        <ele>143.829</ele>
        <time>2013-08-06T05:20:26Z</time>
      </trkpt>
      <trkpt lat="48.7434" lon="2.07912">
        <ele>145.087</ele>
        <time>2013-08-06T05:20:33Z</time>
      </trkpt>
      <trkpt lat="48.74353" lon="2.07922">
        <ele>146.609</ele>
        <time>2013-08-06T05:20:43Z</time>
      </trkpt>
      <trkpt lat="48.74355" lon="2.07924">
        <ele>146.754</ele>
        <time>2013-08-06T05:20:44Z</time>
      </trkpt>
      <trkpt lat="48.74363" lon="2.07933">
        <ele>147.607</ele>
        <time>2013-08-06T05:20:51Z</time>
      </trkpt>
      <trkpt lat="48.74367" lon="2.07936">
        <ele>147.99</ele>
        <time>2013-08-06T05:20:54Z</time>
      </trkpt>
      <trkpt lat="48.7438" lon="2.0794">
        <ele>148.752</ele>
        <time>2013-08-06T05:21:00Z</time>
      </trkpt>
      <trkpt lat="48.74396" lon="2.07943">
        <ele>150.228</ele>
        <time>2013-08-06T05:21:08Z</time>
      </trkpt>
      <trkpt lat="48.74408" lon="2.07946">
        <ele>151.295</ele>
        <time>2013-08-06T05:21:15Z</time>
      </trkpt>
      <trkpt lat="48.74423" lon="2.0795">
        <ele>152.446</ele>
        <time>2013-08-06T05:21:23Z</time>
      </trkpt>
      <trkpt lat="48.74444" lon="2.07954">
        <ele>153.463</ele>
        <time>2013-08-06T05:21:31Z</time>
      </trkpt>
      <trkpt lat="48.7445" lon="2.07955">
        <ele>153.995</ele>
        <time>2013-08-06T05:21:34Z</time>
      </trkpt>
      <trkpt lat="48.74463" lon="2.07959">
        <ele>155.126</ele>
        <time>2013-08-06T05:21:41Z</time>
      </trkpt>
      <trkpt lat="48.74476" lon="2.0797">
        <ele>155.615</ele>
        <time>2013-08-06T05:21:47Z</time>
      </trkpt>
      <trkpt lat="48.74489" lon="2.07981">
        <ele>155.293</ele>
        <time>2013-08-06T05:21:52Z</time>
      </trkpt>
      <trkpt lat="48.74496" lon="2.07988">
        <ele>155.253</ele>
        <time>2013-08-06T05:21:56Z</time>
      </trkpt>
      <trkpt lat="48.74503" lon="2.07995">
        <ele>155.612</ele>
        <time>2013-08-06T05:22:01Z</time>
      </trkpt>
      <trkpt lat="48.74511" lon="2.08011">
        <ele>155.911</ele>
        <time>2013-08-06T05:22:06Z</time>
      </trkpt>
      <trkpt lat="48.7451" lon="2.08032">
        <ele>155.839</ele>
        <time>2013-08-06T05:22:10Z</time>
      </trkpt>
      <trkpt lat="48.74507" lon="2.08048">
        <ele>155.324</ele>
        <time>2013-08-06T05:22:12Z</time>
      </trkpt>
      <trkpt lat="48.74506" lon="2.08073">
        <ele>154.069</ele>
        <time>2013-08-06T05:22:16Z</time>
      </trkpt>
      <trkpt lat="48.74512" lon="2.08075">
        <ele>154.057</ele>
        <time>2013-08-06T05:22:19Z</time>
      </trkpt>
      <trkpt lat="48.7452" lon="2.08071">
        <ele>155.267</ele>
        <time>2013-08-06T05:22:23Z</time>
      </trkpt>
      <trkpt lat="48.74543" lon="2.08069">
        <ele>156.862</ele>
        <time>2013-08-06T05:22:30Z</time>
      </trkpt>
      <trkpt lat="48.74558" lon="2.08071">
        <ele>158.161</ele>
        <time>2013-08-06T05:22:37Z</time>
      </trkpt>
      <trkpt lat="48.74562" lon="2.08073">
        <ele>158.708</ele>
        <time>2013-08-06T05:22:39Z</time>
      </trkpt>
      <trkpt lat="48.74576" lon="2.08068">
        <ele>160.203</ele>
        <time>2013-08-06T05:22:45Z</time>
      </trkpt>
      <trkpt lat="48.74587" lon="2.08049">
        <ele>160.446</ele>
        <time>2013-08-06T05:22:52Z</time>
      </trkpt>
      <trkpt lat="48.746" lon="2.08016">
        <ele>160.735</ele>
        <time>2013-08-06T05:23:01Z</time>
      </trkpt>
      <trkpt lat="48.74613" lon="2.07981">
        <ele>160.959</ele>
        <time>2013-08-06T05:23:10Z</time>
      </trkpt>
      <trkpt lat="48.74633" lon="2.07928">
        <ele>161.406</ele>
        <time>2013-08-06T05:23:22Z</time>
      </trkpt>
      <trkpt lat="48.7465" lon="2.07881">
        <ele>162.453</ele>
        <time>2013-08-06T05:23:33Z</time>
      </trkpt>
      <trkpt lat="48.7467" lon="2.07828">
        <ele>163.812</ele>
        <time>2013-08-06T05:23:45Z</time>
      </trkpt>
      <trkpt lat="48.7469" lon="2.07775">
        <ele>164.92</ele>
        <time>2013-08-06T05:23:57Z</time>
      </trkpt>
      <trkpt lat="48.7471" lon="2.07721">
        <ele>165.982</ele>
        <time>2013-08-06T05:24:09Z</time>
      </trkpt>
      <trkpt lat="48.74725" lon="2.0768">
        <ele>166.434</ele>
        <time>2013-08-06T05:24:18Z</time>
      </trkpt>
      <trkpt lat="48.74744" lon="2.0763">
        <ele>167.294</ele>
        <time>2013-08-06T05:24:29Z</time>
      </trkpt>
      <trkpt lat="48.74764" lon="2.07575">
        <ele>167.771</ele>
        <time>2013-08-06T05:24:41Z</time>
      </trkpt>
      <trkpt lat="48.7478" lon="2.07529">
        <ele>167.996</ele>
        <time>2013-08-06T05:24:50Z</time>
      </trkpt>
      <trkpt lat="48.74801" lon="2.07471">
        <ele>168.436</ele>
        <time>2013-08-06T05:25:00Z</time>
      </trkpt>
      <trkpt lat="48.74826" lon="2.074">
        <ele>168.851</ele>
        <time>2013-08-06T05:25:12Z</time>
      </trkpt>
      <trkpt lat="48.74848" lon="2.07334">
        <ele>169.172</ele>
        <time>2013-08-06T05:25:23Z</time>
      </trkpt>
      <trkpt lat="48.74866" lon="2.07279">
        <ele>169.199</ele>
        <time>2013-08-06T05:25:32Z</time>
      </trkpt>
      <trkpt lat="48.74891" lon="2.07211">
        <ele>169.294</ele>
        <time>2013-08-06T05:25:43Z</time>
      </trkpt>
      <trkpt lat="48.74911" lon="2.07156">
        <ele>169.811</ele>
        <time>2013-08-06T05:25:52Z</time>
      </trkpt>
      <trkpt lat="48.74932" lon="2.071">
        <ele>169.593</ele>
        <time>2013-08-06T05:26:01Z</time>
      </trkpt>
      <trkpt lat="48.74962" lon="2.07025">
        <ele>169.889</ele>
        <time>2013-08-06T05:26:14Z</time>
      </trkpt>
      <trkpt lat="48.74987" lon="2.06966">
        <ele>170.073</ele>
        <time>2013-08-06T05:26:24Z</time>
      </trkpt>
      <trkpt lat="48.75014" lon="2.069">
        <ele>170.417</ele>
        <time>2013-08-06T05:26:35Z</time>
      </trkpt>
      <trkpt lat="48.75035" lon="2.06831">
        <ele>170.482</ele>
        <time>2013-08-06T05:26:46Z</time>
      </trkpt>
      <trkpt lat="48.75046" lon="2.06783">
        <ele>170.837</ele>
        <time>2013-08-06T05:26:54Z</time>
      </trkpt>
      <trkpt lat="48.75047" lon="2.06778">
        <ele>170.943</ele>
        <time>2013-08-06T05:26:55Z</time>
      </trkpt>
      <trkpt lat="48.75054" lon="2.06771">
        <ele>170.887</ele>
        <time>2013-08-06T05:26:58Z</time>
      </trkpt>
      <trkpt lat="48.75057" lon="2.06774">
        <ele>170.961</ele>
        <time>2013-08-06T05:26:59Z</time>
      </trkpt>
      <trkpt lat="48.75074" lon="2.06788">
        <ele>170.837</ele>
        <time>2013-08-06T05:27:04Z</time>
      </trkpt>
      <trkpt lat="48.75078" lon="2.06789">
        <ele>170.934</ele>
        <time>2013-08-06T05:27:05Z</time>
      </trkpt>
      <trkpt lat="48.75095" lon="2.06782">
        <ele>170.936</ele>
        <time>2013-08-06T05:27:09Z</time>
      </trkpt>
      <trkpt lat="48.75102" lon="2.06774">
        <ele>170.905</ele>
        <time>2013-08-06T05:27:11Z</time>
      </trkpt>
      <trkpt lat="48.75127" lon="2.06767">
        <ele>170.997</ele>
        <time>2013-08-06T05:27:17Z</time>
      </trkpt>
      <trkpt lat="48.75131" lon="2.06769">
        <ele>171.053</ele>
        <time>2013-08-06T05:27:18Z</time>
      </trkpt>
      <trkpt lat="48.75167" lon="2.06793">
        <ele>171.379</ele>
        <time>2013-08-06T05:27:27Z</time>
      </trkpt>
      <trkpt lat="48.75179" lon="2.06803">
        <ele>171.341</ele>
        <time>2013-08-06T05:27:30Z</time>
      </trkpt>
      <trkpt lat="48.75208" lon="2.06831">
        <ele>171.196</ele>
        <time>2013-08-06T05:27:37Z</time>
      </trkpt>
      <trkpt lat="48.75248" lon="2.06865">
        <ele>171.253</ele>
        <time>2013-08-06T05:27:46Z</time>
      </trkpt>
      <trkpt lat="48.75289" lon="2.06898">
        <ele>170.987</ele>
        <time>2013-08-06T05:27:55Z</time>
      </trkpt>
      <trkpt lat="48.7533" lon="2.06931">
        <ele>170.787</ele>
        <time>2013-08-06T05:28:04Z</time>
      </trkpt>
      <trkpt lat="48.75389" lon="2.06975">
        <ele>170.405</ele>
        <time>2013-08-06T05:28:16Z</time>
      </trkpt>
      <trkpt lat="48.75438" lon="2.07013">
        <ele>170.635</ele>
        <time>2013-08-06T05:28:26Z</time>
      </trkpt>
      <trkpt lat="48.7548" lon="2.07046">
        <ele>170.899</ele>
        <time>2013-08-06T05:28:35Z</time>
      </trkpt>
      <trkpt lat="48.75516" lon="2.07073">
        <ele>171.361</ele>
        <time>2013-08-06T05:28:43Z</time>
      </trkpt>
      <trkpt lat="48.75539" lon="2.07089">
        <ele>171.496</ele>
        <time>2013-08-06T05:28:48Z</time>
      </trkpt>
      <trkpt lat="48.75557" lon="2.07105">
        <ele>171.508</ele>
        <time>2013-08-06T05:28:54Z</time>
      </trkpt>
      <trkpt lat="48.75559" lon="2.07114">
        <ele>171.541</ele>
        <time>2013-08-06T05:28:56Z</time>
      </trkpt>
      <trkpt lat="48.75567" lon="2.07135">
        <ele>171.438</ele>
        <time>2013-08-06T05:29:00Z</time>
      </trkpt>
      <trkpt lat="48.75581" lon="2.07164">
        <ele>171.527</ele>
        <time>2013-08-06T05:29:05Z</time>
      </trkpt>
      <trkpt lat="48.75582" lon="2.07192">
        <ele>171.716</ele>
        <time>2013-08-06T05:29:09Z</time>
      </trkpt>
      <trkpt lat="48.75573" lon="2.0724">
        <ele>171.582</ele>
        <time>2013-08-06T05:29:15Z</time>
      </trkpt>
      <trkpt lat="48.7556" lon="2.07288">
        <ele>171.393</ele>
        <time>2013-08-06T05:29:21Z</time>
      </trkpt>
      <trkpt lat="48.7554" lon="2.07373">
        <ele>171.058</ele>
        <time>2013-08-06T05:29:31Z</time>
      </trkpt>
      <trkpt lat="48.7552" lon="2.07462">
        <ele>170.757</ele>
        <time>2013-08-06T05:29:41Z</time>
      </trkpt>
      <trkpt lat="48.75516" lon="2.07479">
        <ele>170.697</ele>
        <time>2013-08-06T05:29:43Z</time>
      </trkpt>
      <trkpt lat="48.75502" lon="2.07493">
        <ele>170.673</ele>
        <time>2013-08-06T05:29:46Z</time>
      </trkpt>
      <trkpt lat="48.75486" lon="2.07516">
        <ele>170.732</ele>
        <time>2013-08-06T05:29:50Z</time>
      </trkpt>
      <trkpt lat="48.75487" lon="2.07541">
        <ele>170.511</ele>
        <time>2013-08-06T05:29:53Z</time>
      </trkpt>
      <trkpt lat="48.75499" lon="2.07557">
        <ele>170.476</ele>
        <time>2013-08-06T05:29:56Z</time>
      </trkpt>
      <trkpt lat="48.75517" lon="2.0756">
        <ele>170.529</ele>
        <time>2013-08-06T05:29:59Z</time>
      </trkpt>
      <trkpt lat="48.7553" lon="2.07575">
        <ele>170.698</ele>
        <time>2013-08-06T05:30:02Z</time>
      </trkpt>
      <trkpt lat="48.75556" lon="2.07631">
        <ele>170.684</ele>
        <time>2013-08-06T05:30:10Z</time>
      </trkpt>
      <trkpt lat="48.75595" lon="2.07712">
        <ele>170.317</ele>
        <time>2013-08-06T05:30:21Z</time>
      </trkpt>
      <trkpt lat="48.75624" lon="2.07773">
        <ele>170.408</ele>
        <time>2013-08-06T05:30:29Z</time>
      </trkpt>
      <trkpt lat="48.75661" lon="2.07851">
        <ele>170.155</ele>
        <time>2013-08-06T05:30:39Z</time>
      </trkpt>
      <trkpt lat="48.75673" lon="2.07886">
        <ele>169.933</ele>
        <time>2013-08-06T05:30:43Z</time>
      </trkpt>
      <trkpt lat="48.75681" lon="2.07922">
        <ele>169.827</ele>
        <time>2013-08-06T05:30:47Z</time>
      </trkpt>
      <trkpt lat="48.75685" lon="2.07929">
        <ele>169.815</ele>
        <time>2013-08-06T05:30:48Z</time>
      </trkpt>
      <trkpt lat="48.75708" lon="2.07978">
        <ele>169.478</ele>
        <time>2013-08-06T05:30:54Z</time>
      </trkpt>
      <trkpt lat="48.75714" lon="2.07996">
        <ele>169.273</ele>
        <time>2013-08-06T05:30:56Z</time>
      </trkpt>
      <trkpt lat="48.75713" lon="2.08032">
        <ele>168.903</ele>
        <time>2013-08-06T05:31:00Z</time>
      </trkpt>
      <trkpt lat="48.75711" lon="2.08061">
        <ele>168.521</ele>
        <time>2013-08-06T05:31:03Z</time>
      </trkpt>
      <trkpt lat="48.75698" lon="2.08099">
        <ele>167.943</ele>
        <time>2013-08-06T05:31:07Z</time>
      </trkpt>
      <trkpt lat="48.75693" lon="2.08107">
        <ele>167.71</ele>
        <time>2013-08-06T05:31:08Z</time>
      </trkpt>
      <trkpt lat="48.75681" lon="2.08121">
        <ele>167.278</ele>
        <time>2013-08-06T05:31:10Z</time>
      </trkpt>
      <trkpt lat="48.75657" lon="2.08142">
        <ele>166.369</ele>
        <time>2013-08-06T05:31:14Z</time>
      </trkpt>
      <trkpt lat="48.7561" lon="2.08166">
        <ele>166.416</ele>
        <time>2013-08-06T05:31:22Z</time>
      </trkpt>
      <trkpt lat="48.75581" lon="2.08195">
        <ele>166.623</ele>
        <time>2013-08-06T05:31:28Z</time>
      </trkpt>
      <trkpt lat="48.75556" lon="2.08239">
        <ele>166.696</ele>
        <time>2013-08-06T05:31:35Z</time>
      </trkpt>
      <trkpt lat="48.75535" lon="2.08305">
        <ele>166.573</ele>
        <time>2013-08-06T05:31:44Z</time>
      </trkpt>
      <trkpt lat="48.75534" lon="2.08372">
        <ele>166.806</ele>
        <time>2013-08-06T05:31:53Z</time>
      </trkpt>
      <trkpt lat="48.75533" lon="2.08448">
        <ele>167.964</ele>
        <time>2013-08-06T05:32:03Z</time>
      </trkpt>
      <trkpt lat="48.75534" lon="2.08486">
        <ele>168.877</ele>
        <time>2013-08-06T05:32:08Z</time>
      </trkpt>
      <trkpt lat="48.75536" lon="2.08517">
        <ele>169.474</ele>
        <time>2013-08-06T05:32:12Z</time>
      </trkpt>
      <trkpt lat="48.75541" lon="2.08561">
        <ele>170.723</ele>
        <time>2013-08-06T05:32:18Z</time>
      </trkpt>
      <trkpt lat="48.75554" lon="2.08617">
        <ele>171.665</ele>
        <time>2013-08-06T05:32:26Z</time>
      </trkpt>
      <trkpt lat="48.75576" lon="2.08671">
        <ele>171.439</ele>
        <time>2013-08-06T05:32:34Z</time>
      </trkpt>
      <trkpt lat="48.75606" lon="2.08716">
        <ele>170.514</ele>
        <time>2013-08-06T05:32:41Z</time>
      </trkpt>
      <trkpt lat="48.7564" lon="2.08749">
        <ele>169.308</ele>
        <time>2013-08-06T05:32:47Z</time>
      </trkpt>
      <trkpt lat="48.75692" lon="2.08777">
        <ele>167.235</ele>
        <time>2013-08-06T05:32:54Z</time>
      </trkpt>
      <trkpt lat="48.75749" lon="2.08803">
        <ele>165.016</ele>
        <time>2013-08-06T05:33:01Z</time>
      </trkpt>
      <trkpt lat="48.75816" lon="2.08833">
        <ele>163.821</ele>
        <time>2013-08-06T05:33:10Z</time>
      </trkpt>
      <trkpt lat="48.75876" lon="2.0886">
        <ele>164.318</ele>
        <time>2013-08-06T05:33:19Z</time>
      </trkpt>
      <trkpt lat="48.75922" lon="2.08881">
        <ele>164.465</ele>
        <time>2013-08-06T05:33:27Z</time>
      </trkpt>
      <trkpt lat="48.75969" lon="2.08902">
        <ele>164.755</ele>
        <time>2013-08-06T05:33:36Z</time>
      </trkpt>
      <trkpt lat="48.76018" lon="2.08924">
        <ele>164.951</ele>
        <time>2013-08-06T05:33:45Z</time>
      </trkpt>
      <trkpt lat="48.76076" lon="2.08949">
        <ele>165.611</ele>
        <time>2013-08-06T05:33:56Z</time>
      </trkpt>
      <trkpt lat="48.76097" lon="2.08956">
        <ele>165.556</ele>
        <time>2013-08-06T05:34:00Z</time>
      </trkpt>
      <trkpt lat="48.76135" lon="2.08948">
        <ele>165.83</ele>
        <time>2013-08-06T05:34:07Z</time>
      </trkpt>
      <trkpt lat="48.76146" lon="2.08942">
        <ele>165.958</ele>
        <time>2013-08-06T05:34:09Z</time>
      </trkpt>
      <trkpt lat="48.76176" lon="2.08911">
        <ele>166.138</ele>
        <time>2013-08-06T05:34:16Z</time>
      </trkpt>
      <trkpt lat="48.7618" lon="2.08906">
        <ele>166.187</ele>
        <time>2013-08-06T05:34:17Z</time>
      </trkpt>
      <trkpt lat="48.76184" lon="2.0889">
        <ele>166.182</ele>
        <time>2013-08-06T05:34:20Z</time>
      </trkpt>
      <trkpt lat="48.76181" lon="2.08873">
        <ele>166.426</ele>
        <time>2013-08-06T05:34:23Z</time>
      </trkpt>
      <trkpt lat="48.76184" lon="2.08848">
        <ele>166.615</ele>
        <time>2013-08-06T05:34:28Z</time>
      </trkpt>
      <trkpt lat="48.76186" lon="2.08832">
        <ele>166.718</ele>
        <time>2013-08-06T05:34:33Z</time>
      </trkpt>
      <trkpt lat="48.76194" lon="2.08816">
        <ele>166.618</ele>
        <time>2013-08-06T05:34:37Z</time>
      </trkpt>
      <trkpt lat="48.76194" lon="2.088">
        <ele>166.59</ele>
        <time>2013-08-06T05:34:40Z</time>
      </trkpt>
      <trkpt lat="48.76173" lon="2.0876">
        <ele>166.335</ele>
        <time>2013-08-06T05:34:48Z</time>
      </trkpt>
      <trkpt lat="48.76158" lon="2.08734">
        <ele>166.016</ele>
        <time>2013-08-06T05:34:53Z</time>
      </trkpt>
      <trkpt lat="48.76142" lon="2.08703">
        <ele>165.632</ele>
        <time>2013-08-06T05:34:59Z</time>
      </trkpt>
      <trkpt lat="48.76142" lon="2.08683">
        <ele>165.562</ele>
        <time>2013-08-06T05:35:03Z</time>
      </trkpt>
      <trkpt lat="48.7615" lon="2.08676">
        <ele>165.48</ele>
        <time>2013-08-06T05:35:05Z</time>
      </trkpt>
      <trkpt lat="48.76191" lon="2.08628">
        <ele>164.954</ele>
        <time>2013-08-06T05:35:15Z</time>
      </trkpt>
      <trkpt lat="48.76218" lon="2.08592">
        <ele>165.118</ele>
        <time>2013-08-06T05:35:22Z</time>
      </trkpt>
      <trkpt lat="48.76253" lon="2.08549">
        <ele>165.035</ele>
        <time>2013-08-06T05:35:31Z</time>
      </trkpt>
      <trkpt lat="48.76257" lon="2.08541">
        <ele>164.909</ele>
        <time>2013-08-06T05:35:33Z</time>
      </trkpt>
      <trkpt lat="48.76249" lon="2.08526">
        <ele>164.932</ele>
        <time>2013-08-06T05:35:37Z</time>
      </trkpt>
      <trkpt lat="48.76221" lon="2.08478">
        <ele>165.025</ele>
        <time>2013-08-06T05:35:47Z</time>
      </trkpt>
      <trkpt lat="48.76208" lon="2.08455">
        <ele>165.028</ele>
        <time>2013-08-06T05:35:53Z</time>
      </trkpt>
      <trkpt lat="48.76202" lon="2.08445">
        <ele>165.033</ele>
        <time>2013-08-06T05:35:56Z</time>
      </trkpt>
      <trkpt lat="48.76204" lon="2.08431">
        <ele>165.042</ele>
        <time>2013-08-06T05:36:00Z</time>
      </trkpt>
      <trkpt lat="48.76205" lon="2.0843">
        <ele>165.092</ele>
        <time>2013-08-06T05:36:01Z</time>
      </trkpt>
      <trkpt lat="48.76221" lon="2.08407">
        <ele>165.287</ele>
        <time>2013-08-06T05:36:08Z</time>
      </trkpt>
      <trkpt lat="48.7624" lon="2.0838">
        <ele>165.56</ele>
        <time>2013-08-06T05:36:15Z</time>
      </trkpt>
      <trkpt lat="48.76255" lon="2.08361">
        <ele>165.798</ele>
        <time>2013-08-06T05:36:21Z</time>
      </trkpt>
      <trkpt lat="48.76258" lon="2.08357">
        <ele>165.803</ele>
        <time>2013-08-06T05:36:23Z</time>
      </trkpt>
      <trkpt lat="48.76258" lon="2.08354">
        <ele>165.718</ele>
        <time>2013-08-06T05:36:30Z</time>
      </trkpt>
      <trkpt lat="48.76246" lon="2.08398">
        <ele>176.625</ele>
        <time>2013-08-06T14:53:24Z</time>
      </trkpt>
      <trkpt lat="48.76227" lon="2.08415">
        <ele>176.521</ele>
        <time>2013-08-06T14:53:31Z</time>
      </trkpt>
      <trkpt lat="48.76217" lon="2.08431">
        <ele>176.696</ele>
        <time>2013-08-06T14:53:36Z</time>
      </trkpt>
      <trkpt lat="48.76213" lon="2.08435">
        <ele>176.68</ele>
        <time>2013-08-06T14:53:38Z</time>
      </trkpt>
      <trkpt lat="48.76208" lon="2.0844">
        <ele>176.551</ele>
        <time>2013-08-06T14:53:43Z</time>
      </trkpt>
      <trkpt lat="48.76211" lon="2.0845">
        <ele>176.447</ele>
        <time>2013-08-06T14:53:47Z</time>
      </trkpt>
      <trkpt lat="48.76212" lon="2.08453">
        <ele>176.439</ele>
        <time>2013-08-06T14:53:48Z</time>
      </trkpt>
      <trkpt lat="48.76223" lon="2.08477">
        <ele>176.514</ele>
        <time>2013-08-06T14:53:55Z</time>
      </trkpt>
      <trkpt lat="48.76231" lon="2.08493">
        <ele>176.344</ele>
        <time>2013-08-06T14:54:00Z</time>
      </trkpt>
      <trkpt lat="48.7624" lon="2.08511">
        <ele>176.194</ele>
        <time>2013-08-06T14:54:05Z</time>
      </trkpt>
      <trkpt lat="48.76257" lon="2.08542">
        <ele>176.263</ele>
        <time>2013-08-06T14:54:13Z</time>
      </trkpt>
      <trkpt lat="48.76253" lon="2.08554">
        <ele>176.186</ele>
        <time>2013-08-06T14:54:17Z</time>
      </trkpt>
      <trkpt lat="48.7625" lon="2.08557">
        <ele>176.159</ele>
        <time>2013-08-06T14:54:18Z</time>
      </trkpt>
      <trkpt lat="48.76225" lon="2.08586">
        <ele>176.127</ele>
        <time>2013-08-06T14:54:27Z</time>
      </trkpt>
      <trkpt lat="48.76189" lon="2.08629">
        <ele>175.975</ele>
        <time>2013-08-06T14:54:39Z</time>
      </trkpt>
      <trkpt lat="48.76173" lon="2.08656">
        <ele>176.064</ele>
        <time>2013-08-06T14:54:46Z</time>
      </trkpt>
      <trkpt lat="48.76153" lon="2.08687">
        <ele>175.927</ele>
        <time>2013-08-06T14:54:54Z</time>
      </trkpt>
      <trkpt lat="48.76148" lon="2.08694">
        <ele>175.864</ele>
        <time>2013-08-06T14:54:56Z</time>
      </trkpt>
      <trkpt lat="48.76152" lon="2.08709">
        <ele>175.888</ele>
        <time>2013-08-06T14:55:00Z</time>
      </trkpt>
      <trkpt lat="48.76163" lon="2.08729">
        <ele>176.276</ele>
        <time>2013-08-06T14:55:06Z</time>
      </trkpt>
      <trkpt lat="48.76182" lon="2.08761">
        <ele>176.47</ele>
        <time>2013-08-06T14:55:14Z</time>
      </trkpt>
      <trkpt lat="48.76201" lon="2.08793">
        <ele>176.988</ele>
        <time>2013-08-06T14:55:22Z</time>
      </trkpt>
      <trkpt lat="48.76207" lon="2.08806">
        <ele>177.111</ele>
        <time>2013-08-06T14:55:25Z</time>
      </trkpt>
      <trkpt lat="48.76206" lon="2.08826">
        <ele>177.211</ele>
        <time>2013-08-06T14:55:30Z</time>
      </trkpt>
      <trkpt lat="48.76203" lon="2.08844">
        <ele>177.383</ele>
        <time>2013-08-06T14:55:34Z</time>
      </trkpt>
      <trkpt lat="48.76194" lon="2.08875">
        <ele>177.274</ele>
        <time>2013-08-06T14:55:40Z</time>
      </trkpt>
      <trkpt lat="48.76185" lon="2.08892">
        <ele>176.95</ele>
        <time>2013-08-06T14:55:44Z</time>
      </trkpt>
      <trkpt lat="48.76152" lon="2.08925">
        <ele>176.55</ele>
        <time>2013-08-06T14:55:54Z</time>
      </trkpt>
      <trkpt lat="48.76128" lon="2.08935">
        <ele>176.36</ele>
        <time>2013-08-06T14:56:00Z</time>
      </trkpt>
      <trkpt lat="48.76094" lon="2.0893">
        <ele>175.888</ele>
        <time>2013-08-06T14:56:08Z</time>
      </trkpt>
      <trkpt lat="48.76056" lon="2.08912">
        <ele>175.716</ele>
        <time>2013-08-06T14:56:17Z</time>
      </trkpt>
      <trkpt lat="48.76018" lon="2.08894">
        <ele>175.347</ele>
        <time>2013-08-06T14:56:26Z</time>
      </trkpt>
      <trkpt lat="48.75967" lon="2.08871">
        <ele>175.045</ele>
        <time>2013-08-06T14:56:38Z</time>
      </trkpt>
      <trkpt lat="48.75914" lon="2.08847">
        <ele>174.568</ele>
        <time>2013-08-06T14:56:50Z</time>
      </trkpt>
      <trkpt lat="48.75872" lon="2.08829">
        <ele>174.121</ele>
        <time>2013-08-06T14:56:59Z</time>
      </trkpt>
      <trkpt lat="48.7582" lon="2.08804">
        <ele>173.865</ele>
        <time>2013-08-06T14:57:10Z</time>
      </trkpt>
      <trkpt lat="48.75772" lon="2.08781">
        <ele>174.084</ele>
        <time>2013-08-06T14:57:21Z</time>
      </trkpt>
      <trkpt lat="48.7573" lon="2.08761">
        <ele>174.591</ele>
        <time>2013-08-06T14:57:32Z</time>
      </trkpt>
      <trkpt lat="48.75693" lon="2.08745">
        <ele>175.778</ele>
        <time>2013-08-06T14:57:43Z</time>
      </trkpt>
      <trkpt lat="48.7567" lon="2.08732">
        <ele>176.588</ele>
        <time>2013-08-06T14:57:50Z</time>
      </trkpt>
      <trkpt lat="48.75643" lon="2.0871">
        <ele>177.675</ele>
        <time>2013-08-06T14:57:59Z</time>
      </trkpt>
      <trkpt lat="48.75623" lon="2.08688">
        <ele>178.459</ele>
        <time>2013-08-06T14:58:06Z</time>
      </trkpt>
      <trkpt lat="48.75596" lon="2.08642">
        <ele>179.727</ele>
        <time>2013-08-06T14:58:17Z</time>
      </trkpt>
      <trkpt lat="48.75578" lon="2.0859">
        <ele>180.409</ele>
        <time>2013-08-06T14:58:27Z</time>
      </trkpt>
      <trkpt lat="48.75569" lon="2.08533">
        <ele>180.212</ele>
        <time>2013-08-06T14:58:36Z</time>
      </trkpt>
      <trkpt lat="48.75565" lon="2.08476">
        <ele>179.309</ele>
        <time>2013-08-06T14:58:43Z</time>
      </trkpt>
      <trkpt lat="48.75565" lon="2.08436">
        <ele>178.516</ele>
        <time>2013-08-06T14:58:47Z</time>
      </trkpt>
      <trkpt lat="48.75567" lon="2.0837">
        <ele>176.812</ele>
        <time>2013-08-06T14:58:53Z</time>
      </trkpt>
      <trkpt lat="48.75572" lon="2.0829">
        <ele>175.437</ele>
        <time>2013-08-06T14:59:00Z</time>
      </trkpt>
      <trkpt lat="48.75582" lon="2.0826">
        <ele>174.99</ele>
        <time>2013-08-06T14:59:03Z</time>
      </trkpt>
      <trkpt lat="48.75602" lon="2.08221">
        <ele>174.814</ele>
        <time>2013-08-06T14:59:08Z</time>
      </trkpt>
      <trkpt lat="48.75618" lon="2.08202">
        <ele>174.834</ele>
        <time>2013-08-06T14:59:11Z</time>
      </trkpt>
      <trkpt lat="48.7566" lon="2.08176">
        <ele>174.541</ele>
        <time>2013-08-06T14:59:18Z</time>
      </trkpt>
      <trkpt lat="48.75699" lon="2.08156">
        <ele>174.569</ele>
        <time>2013-08-06T14:59:25Z</time>
      </trkpt>
      <trkpt lat="48.75734" lon="2.08116">
        <ele>174.884</ele>
        <time>2013-08-06T14:59:33Z</time>
      </trkpt>
      <trkpt lat="48.75745" lon="2.08099">
        <ele>175.114</ele>
        <time>2013-08-06T14:59:36Z</time>
      </trkpt>
      <trkpt lat="48.75769" lon="2.0808">
        <ele>175.245</ele>
        <time>2013-08-06T14:59:41Z</time>
      </trkpt>
      <trkpt lat="48.75783" lon="2.08057">
        <ele>174.96</ele>
        <time>2013-08-06T14:59:45Z</time>
      </trkpt>
      <trkpt lat="48.75785" lon="2.08036">
        <ele>174.913</ele>
        <time>2013-08-06T14:59:48Z</time>
      </trkpt>
      <trkpt lat="48.75778" lon="2.08016">
        <ele>175.165</ele>
        <time>2013-08-06T14:59:51Z</time>
      </trkpt>
      <trkpt lat="48.75763" lon="2.08005">
        <ele>175.702</ele>
        <time>2013-08-06T14:59:54Z</time>
      </trkpt>
      <trkpt lat="48.75742" lon="2.07982">
        <ele>176.406</ele>
        <time>2013-08-06T14:59:59Z</time>
      </trkpt>
      <trkpt lat="48.75723" lon="2.07935">
        <ele>176.859</ele>
        <time>2013-08-06T15:00:06Z</time>
      </trkpt>
      <trkpt lat="48.7572" lon="2.07915">
        <ele>177.024</ele>
        <time>2013-08-06T15:00:09Z</time>
      </trkpt>
      <trkpt lat="48.75714" lon="2.0789">
        <ele>177.326</ele>
        <time>2013-08-06T15:00:13Z</time>
      </trkpt>
      <trkpt lat="48.75705" lon="2.07884">
        <ele>177.445</ele>
        <time>2013-08-06T15:00:15Z</time>
      </trkpt>
      <trkpt lat="48.75698" lon="2.07879">
        <ele>177.596</ele>
        <time>2013-08-06T15:00:17Z</time>
      </trkpt>
      <trkpt lat="48.75689" lon="2.07855">
        <ele>177.584</ele>
        <time>2013-08-06T15:00:22Z</time>
      </trkpt>
      <trkpt lat="48.75661" lon="2.07799">
        <ele>177.722</ele>
        <time>2013-08-06T15:00:32Z</time>
      </trkpt>
      <trkpt lat="48.75628" lon="2.07736">
        <ele>178.227</ele>
        <time>2013-08-06T15:00:43Z</time>
      </trkpt>
      <trkpt lat="48.75611" lon="2.07701">
        <ele>178.17</ele>
        <time>2013-08-06T15:00:49Z</time>
      </trkpt>
      <trkpt lat="48.75588" lon="2.07655">
        <ele>178.281</ele>
        <time>2013-08-06T15:00:57Z</time>
      </trkpt>
      <trkpt lat="48.75557" lon="2.07593">
        <ele>178.088</ele>
        <time>2013-08-06T15:01:08Z</time>
      </trkpt>
      <trkpt lat="48.75535" lon="2.0755">
        <ele>178.715</ele>
        <time>2013-08-06T15:01:16Z</time>
      </trkpt>
      <trkpt lat="48.75532" lon="2.07516">
        <ele>178.354</ele>
        <time>2013-08-06T15:01:21Z</time>
      </trkpt>
      <trkpt lat="48.75529" lon="2.07496">
        <ele>178.137</ele>
        <time>2013-08-06T15:01:24Z</time>
      </trkpt>
      <trkpt lat="48.75529" lon="2.0747">
        <ele>178.199</ele>
        <time>2013-08-06T15:01:28Z</time>
      </trkpt>
      <trkpt lat="48.75543" lon="2.07415">
        <ele>178.366</ele>
        <time>2013-08-06T15:01:37Z</time>
      </trkpt>
      <trkpt lat="48.75559" lon="2.07358">
        <ele>178.524</ele>
        <time>2013-08-06T15:01:46Z</time>
      </trkpt>
      <trkpt lat="48.75571" lon="2.07312">
        <ele>178.467</ele>
        <time>2013-08-06T15:01:53Z</time>
      </trkpt>
      <trkpt lat="48.75587" lon="2.07246">
        <ele>178.797</ele>
        <time>2013-08-06T15:02:03Z</time>
      </trkpt>
      <trkpt lat="48.75597" lon="2.07208">
        <ele>178.887</ele>
        <time>2013-08-06T15:02:09Z</time>
      </trkpt>
      <trkpt lat="48.75603" lon="2.07181">
        <ele>178.984</ele>
        <time>2013-08-06T15:02:14Z</time>
      </trkpt>
      <trkpt lat="48.75589" lon="2.07173">
        <ele>179.202</ele>
        <time>2013-08-06T15:02:19Z</time>
      </trkpt>
      <trkpt lat="48.75574" lon="2.07154">
        <ele>179.099</ele>
        <time>2013-08-06T15:02:24Z</time>
      </trkpt>
      <trkpt lat="48.75568" lon="2.07138">
        <ele>179.024</ele>
        <time>2013-08-06T15:02:27Z</time>
      </trkpt>
      <trkpt lat="48.75565" lon="2.07127">
        <ele>179.031</ele>
        <time>2013-08-06T15:02:29Z</time>
      </trkpt>
      <trkpt lat="48.75559" lon="2.07114">
        <ele>179.054</ele>
        <time>2013-08-06T15:02:33Z</time>
      </trkpt>
      <trkpt lat="48.75556" lon="2.07099">
        <ele>178.879</ele>
        <time>2013-08-06T15:02:37Z</time>
      </trkpt>
      <trkpt lat="48.75553" lon="2.07096">
        <ele>178.888</ele>
        <time>2013-08-06T15:02:38Z</time>
      </trkpt>
      <trkpt lat="48.75524" lon="2.07076">
        <ele>178.796</ele>
        <time>2013-08-06T15:02:46Z</time>
      </trkpt>
      <trkpt lat="48.75495" lon="2.07057">
        <ele>178.58</ele>
        <time>2013-08-06T15:02:53Z</time>
      </trkpt>
      <trkpt lat="48.75451" lon="2.07024">
        <ele>178.308</ele>
        <time>2013-08-06T15:03:03Z</time>
      </trkpt>
      <trkpt lat="48.75406" lon="2.0699">
        <ele>178.001</ele>
        <time>2013-08-06T15:03:13Z</time>
      </trkpt>
      <trkpt lat="48.75354" lon="2.06949">
        <ele>178.15</ele>
        <time>2013-08-06T15:03:24Z</time>
      </trkpt>
      <trkpt lat="48.75311" lon="2.06918">
        <ele>177.932</ele>
        <time>2013-08-06T15:03:33Z</time>
      </trkpt>
      <trkpt lat="48.75253" lon="2.06874">
        <ele>178.101</ele>
        <time>2013-08-06T15:03:45Z</time>
      </trkpt>
      <trkpt lat="48.75203" lon="2.06834">
        <ele>178.221</ele>
        <time>2013-08-06T15:03:56Z</time>
      </trkpt>
      <trkpt lat="48.75165" lon="2.06798">
        <ele>178.588</ele>
        <time>2013-08-06T15:04:05Z</time>
      </trkpt>
      <trkpt lat="48.75129" lon="2.06773">
        <ele>178.674</ele>
        <time>2013-08-06T15:04:13Z</time>
      </trkpt>
      <trkpt lat="48.75121" lon="2.06768">
        <ele>178.691</ele>
        <time>2013-08-06T15:04:15Z</time>
      </trkpt>
      <trkpt lat="48.75101" lon="2.06774">
        <ele>178.656</ele>
        <time>2013-08-06T15:04:20Z</time>
      </trkpt>
      <trkpt lat="48.75097" lon="2.06777">
        <ele>178.676</ele>
        <time>2013-08-06T15:04:21Z</time>
      </trkpt>
      <trkpt lat="48.75078" lon="2.06793">
        <ele>178.587</ele>
        <time>2013-08-06T15:04:27Z</time>
      </trkpt>
      <trkpt lat="48.75062" lon="2.06787">
        <ele>178.486</ele>
        <time>2013-08-06T15:04:31Z</time>
      </trkpt>
      <trkpt lat="48.75045" lon="2.06765">
        <ele>178.714</ele>
        <time>2013-08-06T15:04:36Z</time>
      </trkpt>
      <trkpt lat="48.75044" lon="2.06753">
        <ele>178.768</ele>
        <time>2013-08-06T15:04:38Z</time>
      </trkpt>
      <trkpt lat="48.7504" lon="2.06722">
        <ele>178.479</ele>
        <time>2013-08-06T15:04:43Z</time>
      </trkpt>
      <trkpt lat="48.7503" lon="2.06702">
        <ele>178.489</ele>
        <time>2013-08-06T15:04:47Z</time>
      </trkpt>
      <trkpt lat="48.75025" lon="2.0668">
        <ele>178.308</ele>
        <time>2013-08-06T15:04:52Z</time>
      </trkpt>
      <trkpt lat="48.75041" lon="2.06673">
        <ele>178.053</ele>
        <time>2013-08-06T15:04:57Z</time>
      </trkpt>
      <trkpt lat="48.75045" lon="2.06674">
        <ele>178.121</ele>
        <time>2013-08-06T15:04:58Z</time>
      </trkpt>
      <trkpt lat="48.75065" lon="2.06665">
        <ele>178.485</ele>
        <time>2013-08-06T15:05:03Z</time>
      </trkpt>
      <trkpt lat="48.75084" lon="2.0666">
        <ele>178.533</ele>
        <time>2013-08-06T15:05:07Z</time>
      </trkpt>
      <trkpt lat="48.75101" lon="2.06649">
        <ele>178.46</ele>
        <time>2013-08-06T15:05:11Z</time>
      </trkpt>
      <trkpt lat="48.75143" lon="2.06601">
        <ele>178.361</ele>
        <time>2013-08-06T15:05:21Z</time>
      </trkpt>
      <trkpt lat="48.75174" lon="2.06549">
        <ele>178.616</ele>
        <time>2013-08-06T15:05:30Z</time>
      </trkpt>
      <trkpt lat="48.75199" lon="2.0649">
        <ele>179.211</ele>
        <time>2013-08-06T15:05:39Z</time>
      </trkpt>
      <trkpt lat="48.75219" lon="2.06442">
        <ele>179.278</ele>
        <time>2013-08-06T15:05:46Z</time>
      </trkpt>
      <trkpt lat="48.75239" lon="2.06396">
        <ele>179.392</ele>
        <time>2013-08-06T15:05:53Z</time>
      </trkpt>
      <trkpt lat="48.75242" lon="2.0639">
        <ele>179.386</ele>
        <time>2013-08-06T15:05:54Z</time>
      </trkpt>
      <trkpt lat="48.75246" lon="2.06357">
        <ele>179.495</ele>
        <time>2013-08-06T15:05:59Z</time>
      </trkpt>
      <trkpt lat="48.75248" lon="2.06338">
        <ele>179.552</ele>
        <time>2013-08-06T15:06:02Z</time>
      </trkpt>
      <trkpt lat="48.75252" lon="2.06325">
        <ele>179.567</ele>
        <time>2013-08-06T15:06:04Z</time>
      </trkpt>
      <trkpt lat="48.75272" lon="2.06249">
        <ele>179.726</ele>
        <time>2013-08-06T15:06:15Z</time>
      </trkpt>
      <trkpt lat="48.75289" lon="2.06193">
        <ele>179.789</ele>
        <time>2013-08-06T15:06:23Z</time>
      </trkpt>
      <trkpt lat="48.75312" lon="2.06135">
        <ele>180.021</ele>
        <time>2013-08-06T15:06:32Z</time>
      </trkpt>
      <trkpt lat="48.75342" lon="2.06074">
        <ele>180.334</ele>
        <time>2013-08-06T15:06:42Z</time>
      </trkpt>
      <trkpt lat="48.75368" lon="2.06015">
        <ele>180.472</ele>
        <time>2013-08-06T15:06:51Z</time>
      </trkpt>
      <trkpt lat="48.75392" lon="2.05967">
        <ele>180.771</ele>
        <time>2013-08-06T15:06:59Z</time>
      </trkpt>
      <trkpt lat="48.75412" lon="2.05918">
        <ele>180.806</ele>
        <time>2013-08-06T15:07:07Z</time>
      </trkpt>
      <trkpt lat="48.75423" lon="2.05895">
        <ele>180.616</ele>
        <time>2013-08-06T15:07:11Z</time>
      </trkpt>
      <trkpt lat="48.7544" lon="2.05842">
        <ele>180.37</ele>
        <time>2013-08-06T15:07:19Z</time>
      </trkpt>
      <trkpt lat="48.75447" lon="2.0582">
        <ele>180.348</ele>
        <time>2013-08-06T15:07:22Z</time>
      </trkpt>
      <trkpt lat="48.75458" lon="2.05783">
        <ele>180.285</ele>
        <time>2013-08-06T15:07:27Z</time>
      </trkpt>
      <trkpt lat="48.75477" lon="2.05726">
        <ele>179.906</ele>
        <time>2013-08-06T15:07:35Z</time>
      </trkpt>
      <trkpt lat="48.75495" lon="2.05676">
        <ele>179.658</ele>
        <time>2013-08-06T15:07:42Z</time>
      </trkpt>
      <trkpt lat="48.75497" lon="2.05669">
        <ele>179.739</ele>
        <time>2013-08-06T15:07:43Z</time>
      </trkpt>
      <trkpt lat="48.75518" lon="2.05612">
        <ele>179.388</ele>
        <time>2013-08-06T15:07:51Z</time>
      </trkpt>
      <trkpt lat="48.75522" lon="2.05598">
        <ele>179.318</ele>
        <time>2013-08-06T15:07:53Z</time>
      </trkpt>
      <trkpt lat="48.75527" lon="2.05578">
        <ele>179.225</ele>
        <time>2013-08-06T15:07:56Z</time>
      </trkpt>
      <trkpt lat="48.75533" lon="2.0555">
        <ele>179.181</ele>
        <time>2013-08-06T15:08:01Z</time>
      </trkpt>
      <trkpt lat="48.75528" lon="2.05547">
        <ele>179.268</ele>
        <time>2013-08-06T15:08:04Z</time>
      </trkpt>
      <trkpt lat="48.75514" lon="2.05547">
        <ele>179.29</ele>
        <time>2013-08-06T15:08:08Z</time>
      </trkpt>
      <trkpt lat="48.7551" lon="2.05545">
        <ele>179.224</ele>
        <time>2013-08-06T15:08:09Z</time>
      </trkpt>
      <trkpt lat="48.75475" lon="2.05535">
        <ele>178.589</ele>
        <time>2013-08-06T15:08:17Z</time>
      </trkpt>
      <trkpt lat="48.75447" lon="2.05527">
        <ele>178.286</ele>
        <time>2013-08-06T15:08:23Z</time>
      </trkpt>
      <trkpt lat="48.7544" lon="2.05511">
        <ele>178.202</ele>
        <time>2013-08-06T15:08:26Z</time>
      </trkpt>
      <trkpt lat="48.75441" lon="2.05485">
        <ele>177.954</ele>
        <time>2013-08-06T15:08:30Z</time>
      </trkpt>
      <trkpt lat="48.7544" lon="2.05468">
        <ele>177.898</ele>
        <time>2013-08-06T15:08:33Z</time>
      </trkpt>
      <trkpt lat="48.75429" lon="2.05459">
        <ele>177.848</ele>
        <time>2013-08-06T15:08:37Z</time>
      </trkpt>
      <trkpt lat="48.75424" lon="2.05458">
        <ele>177.875</ele>
        <time>2013-08-06T15:08:38Z</time>
      </trkpt>
      <trkpt lat="48.75385" lon="2.05452">
        <ele>177.512</ele>
        <time>2013-08-06T15:08:46Z</time>
      </trkpt>
      <trkpt lat="48.75381" lon="2.0545">
        <ele>177.43</ele>
        <time>2013-08-06T15:08:47Z</time>
      </trkpt>
      <trkpt lat="48.75333" lon="2.0544">
        <ele>177.081</ele>
        <time>2013-08-06T15:08:56Z</time>
      </trkpt>
      <trkpt lat="48.75319" lon="2.05437">
        <ele>176.81</ele>
        <time>2013-08-06T15:08:59Z</time>
      </trkpt>
      <trkpt lat="48.75295" lon="2.05425">
        <ele>176.666</ele>
        <time>2013-08-06T15:09:05Z</time>
      </trkpt>
      <trkpt lat="48.75283" lon="2.05418">
        <ele>176.54</ele>
        <time>2013-08-06T15:09:08Z</time>
      </trkpt>
      <trkpt lat="48.7527" lon="2.0541">
        <ele>176.066</ele>
        <time>2013-08-06T15:09:12Z</time>
      </trkpt>
      <trkpt lat="48.75254" lon="2.05414">
        <ele>175.507</ele>
        <time>2013-08-06T15:09:17Z</time>
      </trkpt>
      <trkpt lat="48.75248" lon="2.05418">
        <ele>175.301</ele>
        <time>2013-08-06T15:09:19Z</time>
      </trkpt>
      <trkpt lat="48.75222" lon="2.05416">
        <ele>175.165</ele>
        <time>2013-08-06T15:09:25Z</time>
      </trkpt>
      <trkpt lat="48.75214" lon="2.05414">
        <ele>174.99</ele>
        <time>2013-08-06T15:09:27Z</time>
      </trkpt>
      <trkpt lat="48.75206" lon="2.05413">
        <ele>174.886</ele>
        <time>2013-08-06T15:09:29Z</time>
      </trkpt>
      <trkpt lat="48.75188" lon="2.05402">
        <ele>174.726</ele>
        <time>2013-08-06T15:09:34Z</time>
      </trkpt>
      <trkpt lat="48.75189" lon="2.05397">
        <ele>174.765</ele>
        <time>2013-08-06T15:09:35Z</time>
      </trkpt>
      <trkpt lat="48.75195" lon="2.05364">
        <ele>174.44</ele>
        <time>2013-08-06T15:09:40Z</time>
      </trkpt>
      <trkpt lat="48.75203" lon="2.05303">
        <ele>173.692</ele>
        <time>2013-08-06T15:09:48Z</time>
      </trkpt>
      <trkpt lat="48.75205" lon="2.05287">
        <ele>173.467</ele>
        <time>2013-08-06T15:09:50Z</time>
      </trkpt>
      <trkpt lat="48.75208" lon="2.05248">
        <ele>173.177</ele>
        <time>2013-08-06T15:09:55Z</time>
      </trkpt>
      <trkpt lat="48.75216" lon="2.05192">
        <ele>173.161</ele>
        <time>2013-08-06T15:10:02Z</time>
      </trkpt>
      <trkpt lat="48.75216" lon="2.05161">
        <ele>173.108</ele>
        <time>2013-08-06T15:10:06Z</time>
      </trkpt>
      <trkpt lat="48.75222" lon="2.05118">
        <ele>173.273</ele>
        <time>2013-08-06T15:10:12Z</time>
      </trkpt>
      <trkpt lat="48.75223" lon="2.05112">
        <ele>173.324</ele>
        <time>2013-08-06T15:10:13Z</time>
      </trkpt>
      <trkpt lat="48.75221" lon="2.05091">
        <ele>173.619</ele>
        <time>2013-08-06T15:10:17Z</time>
      </trkpt>
      <trkpt lat="48.75213" lon="2.05076">
        <ele>173.937</ele>
        <time>2013-08-06T15:10:22Z</time>
      </trkpt>
      <trkpt lat="48.75209" lon="2.05074">
        <ele>173.859</ele>
        <time>2013-08-06T15:10:25Z</time>
      </trkpt>
      <trkpt lat="48.752" lon="2.05069">
        <ele>173.403</ele>
        <time>2013-08-06T15:10:28Z</time>
      </trkpt>
      <trkpt lat="48.75195" lon="2.05052">
        <ele>173.01</ele>
        <time>2013-08-06T15:10:31Z</time>
      </trkpt>
      <trkpt lat="48.75188" lon="2.05037">
        <ele>172.657</ele>
        <time>2013-08-06T15:10:34Z</time>
      </trkpt>
      <trkpt lat="48.75169" lon="2.05012">
        <ele>172.149</ele>
        <time>2013-08-06T15:10:40Z</time>
      </trkpt>
      <trkpt lat="48.7516" lon="2.05001">
        <ele>171.618</ele>
        <time>2013-08-06T15:10:43Z</time>
      </trkpt>
      <trkpt lat="48.75154" lon="2.04986">
        <ele>171.361</ele>
        <time>2013-08-06T15:10:46Z</time>
      </trkpt>
      <trkpt lat="48.75147" lon="2.04965">
        <ele>171.311</ele>
        <time>2013-08-06T15:10:50Z</time>
      </trkpt>
      <trkpt lat="48.75134" lon="2.04932">
        <ele>171.074</ele>
        <time>2013-08-06T15:10:56Z</time>
      </trkpt>
      <trkpt lat="48.75116" lon="2.04886">
        <ele>171.006</ele>
        <time>2013-08-06T15:11:04Z</time>
      </trkpt>
      <trkpt lat="48.75114" lon="2.0488">
        <ele>170.977</ele>
        <time>2013-08-06T15:11:05Z</time>
      </trkpt>
      <trkpt lat="48.75108" lon="2.04869">
        <ele>170.902</ele>
        <time>2013-08-06T15:11:07Z</time>
      </trkpt>
      <trkpt lat="48.75099" lon="2.04851">
        <ele>170.772</ele>
        <time>2013-08-06T15:11:10Z</time>
      </trkpt>
      <trkpt lat="48.75082" lon="2.04808">
        <ele>170.16</ele>
        <time>2013-08-06T15:11:17Z</time>
      </trkpt>
      <trkpt lat="48.75079" lon="2.04801">
        <ele>170.036</ele>
        <time>2013-08-06T15:11:18Z</time>
      </trkpt>
      <trkpt lat="48.75056" lon="2.04748">
        <ele>168.787</ele>
        <time>2013-08-06T15:11:25Z</time>
      </trkpt>
      <trkpt lat="48.75035" lon="2.04698">
        <ele>167.591</ele>
        <time>2013-08-06T15:11:31Z</time>
      </trkpt>
      <trkpt lat="48.75032" lon="2.04689">
        <ele>167.528</ele>
        <time>2013-08-06T15:11:32Z</time>
      </trkpt>
      <trkpt lat="48.75024" lon="2.04667">
        <ele>167.718</ele>
        <time>2013-08-06T15:11:35Z</time>
      </trkpt>
      <trkpt lat="48.75013" lon="2.04629">
        <ele>168.863</ele>
        <time>2013-08-06T15:11:40Z</time>
      </trkpt>
      <trkpt lat="48.75011" lon="2.04621">
        <ele>169.021</ele>
        <time>2013-08-06T15:11:41Z</time>
      </trkpt>
      <trkpt lat="48.75004" lon="2.04597">
        <ele>169.332</ele>
        <time>2013-08-06T15:11:44Z</time>
      </trkpt>
      <trkpt lat="48.75" lon="2.04579">
        <ele>169.259</ele>
        <time>2013-08-06T15:11:46Z</time>
      </trkpt>
      <trkpt lat="48.74988" lon="2.04522">
        <ele>167.888</ele>
        <time>2013-08-06T15:11:52Z</time>
      </trkpt>
      <trkpt lat="48.74978" lon="2.0446">
        <ele>166.294</ele>
        <time>2013-08-06T15:11:58Z</time>
      </trkpt>
      <trkpt lat="48.74977" lon="2.04422">
        <ele>165.259</ele>
        <time>2013-08-06T15:12:02Z</time>
      </trkpt>
      <trkpt lat="48.74975" lon="2.04412">
        <ele>165.085</ele>
        <time>2013-08-06T15:12:03Z</time>
      </trkpt>
      <trkpt lat="48.7497" lon="2.04385">
        <ele>164.754</ele>
        <time>2013-08-06T15:12:06Z</time>
      </trkpt>
      <trkpt lat="48.74962" lon="2.04346">
        <ele>164.792</ele>
        <time>2013-08-06T15:12:11Z</time>
      </trkpt>
      <trkpt lat="48.74968" lon="2.04337">
        <ele>165.19</ele>
        <time>2013-08-06T15:12:14Z</time>
      </trkpt>
      <trkpt lat="48.74972" lon="2.04336">
        <ele>165.364</ele>
        <time>2013-08-06T15:12:15Z</time>
      </trkpt>
      <trkpt lat="48.74984" lon="2.04335">
        <ele>165.888</ele>
        <time>2013-08-06T15:12:17Z</time>
      </trkpt>
      <trkpt lat="48.74999" lon="2.04322">
        <ele>166.765</ele>
        <time>2013-08-06T15:12:21Z</time>
      </trkpt>
      <trkpt lat="48.75001" lon="2.04311">
        <ele>167.065</ele>
        <time>2013-08-06T15:12:23Z</time>
      </trkpt>
      <trkpt lat="48.75013" lon="2.04287">
        <ele>167.258</ele>
        <time>2013-08-06T15:12:27Z</time>
      </trkpt>
      <trkpt lat="48.75014" lon="2.0428">
        <ele>167.244</ele>
        <time>2013-08-06T15:12:28Z</time>
      </trkpt>
      <trkpt lat="48.75017" lon="2.04236">
        <ele>166.688</ele>
        <time>2013-08-06T15:12:33Z</time>
      </trkpt>
      <trkpt lat="48.75019" lon="2.0422">
        <ele>166.22</ele>
        <time>2013-08-06T15:12:35Z</time>
      </trkpt>
      <trkpt lat="48.75029" lon="2.04191">
        <ele>165.606</ele>
        <time>2013-08-06T15:12:39Z</time>
      </trkpt>
      <trkpt lat="48.75044" lon="2.04171">
        <ele>165.292</ele>
        <time>2013-08-06T15:12:43Z</time>
      </trkpt>
      <trkpt lat="48.75064" lon="2.04162">
        <ele>166.6</ele>
        <time>2013-08-06T15:12:48Z</time>
      </trkpt>
      <trkpt lat="48.7508" lon="2.04161">
        <ele>167.889</ele>
        <time>2013-08-06T15:12:52Z</time>
      </trkpt>
      <trkpt lat="48.75095" lon="2.04161">
        <ele>168.852</ele>
        <time>2013-08-06T15:12:57Z</time>
      </trkpt>
      <trkpt lat="48.75099" lon="2.0416">
        <ele>169.082</ele>
        <time>2013-08-06T15:12:59Z</time>
      </trkpt>
      <trkpt lat="48.75114" lon="2.04153">
        <ele>169.438</ele>
        <time>2013-08-06T15:13:04Z</time>
      </trkpt>
      <trkpt lat="48.75129" lon="2.04136">
        <ele>169.671</ele>
        <time>2013-08-06T15:13:09Z</time>
      </trkpt>
      <trkpt lat="48.75139" lon="2.04123">
        <ele>169.76</ele>
        <time>2013-08-06T15:13:12Z</time>
      </trkpt>
      <trkpt lat="48.75156" lon="2.041">
        <ele>169.899</ele>
        <time>2013-08-06T15:13:18Z</time>
      </trkpt>
      <trkpt lat="48.7516" lon="2.04099">
        <ele>169.88</ele>
        <time>2013-08-06T15:13:19Z</time>
      </trkpt>
      <trkpt lat="48.75178" lon="2.04099">
        <ele>169.815</ele>
        <time>2013-08-06T15:13:23Z</time>
      </trkpt>
      <trkpt lat="48.75202" lon="2.04106">
        <ele>170.038</ele>
        <time>2013-08-06T15:13:29Z</time>
      </trkpt>
      <trkpt lat="48.75226" lon="2.04114">
        <ele>170.357</ele>
        <time>2013-08-06T15:13:35Z</time>
      </trkpt>
      <trkpt lat="48.75239" lon="2.04111">
        <ele>170.395</ele>
        <time>2013-08-06T15:13:39Z</time>
      </trkpt>
      <trkpt lat="48.75257" lon="2.0411">
        <ele>170.095</ele>
        <time>2013-08-06T15:13:44Z</time>
      </trkpt>
      <trkpt lat="48.75268" lon="2.04099">
        <ele>170.277</ele>
        <time>2013-08-06T15:13:49Z</time>
      </trkpt>
      <trkpt lat="48.75271" lon="2.04096">
        <ele>170.376</ele>
        <time>2013-08-06T15:13:50Z</time>
      </trkpt>
      <trkpt lat="48.75277" lon="2.04091">
        <ele>170.461</ele>
        <time>2013-08-06T15:13:52Z</time>
      </trkpt>
      <trkpt lat="48.75296" lon="2.04075">
        <ele>170.776</ele>
        <time>2013-08-06T15:13:58Z</time>
      </trkpt>
      <trkpt lat="48.75348" lon="2.04081">
        <ele>171.566</ele>
        <time>2013-08-06T15:14:05Z</time>
      </trkpt>
      <trkpt lat="48.75385" lon="2.04093">
        <ele>172.204</ele>
        <time>2013-08-06T15:14:11Z</time>
      </trkpt>
      <trkpt lat="48.75399" lon="2.041">
        <ele>172.675</ele>
        <time>2013-08-06T15:14:16Z</time>
      </trkpt>
      <trkpt lat="48.75405" lon="2.04101">
        <ele>172.763</ele>
        <time>2013-08-06T15:14:18Z</time>
      </trkpt>
      <trkpt lat="48.75416" lon="2.04087">
        <ele>172.874</ele>
        <time>2013-08-06T15:14:22Z</time>
      </trkpt>
      <trkpt lat="48.75421" lon="2.04077">
        <ele>172.849</ele>
        <time>2013-08-06T15:14:24Z</time>
      </trkpt>
      <trkpt lat="48.75435" lon="2.04062">
        <ele>172.682</ele>
        <time>2013-08-06T15:14:28Z</time>
      </trkpt>
      <trkpt lat="48.75449" lon="2.04037">
        <ele>172.693</ele>
        <time>2013-08-06T15:14:33Z</time>
      </trkpt>
      <trkpt lat="48.75458" lon="2.04019">
        <ele>172.505</ele>
        <time>2013-08-06T15:14:36Z</time>
      </trkpt>
      <trkpt lat="48.75463" lon="2.04007">
        <ele>172.491</ele>
        <time>2013-08-06T15:14:38Z</time>
      </trkpt>
      <trkpt lat="48.75472" lon="2.03984">
        <ele>172.491</ele>
        <time>2013-08-06T15:14:42Z</time>
      </trkpt>
      <trkpt lat="48.75486" lon="2.03958">
        <ele>172.49</ele>
        <time>2013-08-06T15:14:47Z</time>
      </trkpt>
      <trkpt lat="48.75492" lon="2.03937">
        <ele>172.468</ele>
        <time>2013-08-06T15:14:50Z</time>
      </trkpt>
      <trkpt lat="48.75504" lon="2.03907">
        <ele>172.878</ele>
        <time>2013-08-06T15:14:55Z</time>
      </trkpt>
      <trkpt lat="48.75511" lon="2.03869">
        <ele>172.794</ele>
        <time>2013-08-06T15:15:00Z</time>
      </trkpt>
      <trkpt lat="48.75514" lon="2.03856">
        <ele>172.667</ele>
        <time>2013-08-06T15:15:02Z</time>
      </trkpt>
      <trkpt lat="48.75522" lon="2.03823">
        <ele>172.549</ele>
        <time>2013-08-06T15:15:07Z</time>
      </trkpt>
      <trkpt lat="48.7554" lon="2.03775">
        <ele>172.507</ele>
        <time>2013-08-06T15:15:15Z</time>
      </trkpt>
      <trkpt lat="48.75543" lon="2.03763">
        <ele>172.557</ele>
        <time>2013-08-06T15:15:17Z</time>
      </trkpt>
      <trkpt lat="48.75547" lon="2.03751">
        <ele>172.653</ele>
        <time>2013-08-06T15:15:19Z</time>
      </trkpt>
      <trkpt lat="48.7555" lon="2.03719">
        <ele>172.778</ele>
        <time>2013-08-06T15:15:24Z</time>
      </trkpt>
      <trkpt lat="48.75553" lon="2.03692">
        <ele>172.822</ele>
        <time>2013-08-06T15:15:28Z</time>
      </trkpt>
      <trkpt lat="48.75554" lon="2.03679">
        <ele>172.861</ele>
        <time>2013-08-06T15:15:30Z</time>
      </trkpt>
      <trkpt lat="48.75555" lon="2.03638">
        <ele>172.61</ele>
        <time>2013-08-06T15:15:36Z</time>
      </trkpt>
      <trkpt lat="48.75556" lon="2.03624">
        <ele>172.342</ele>
        <time>2013-08-06T15:15:38Z</time>
      </trkpt>
      <trkpt lat="48.75567" lon="2.03569">
        <ele>172.044</ele>
        <time>2013-08-06T15:15:46Z</time>
      </trkpt>
      <trkpt lat="48.75573" lon="2.03556">
        <ele>172.166</ele>
        <time>2013-08-06T15:15:48Z</time>
      </trkpt>
      <trkpt lat="48.75583" lon="2.03528">
        <ele>172.466</ele>
        <time>2013-08-06T15:15:52Z</time>
      </trkpt>
      <trkpt lat="48.7559" lon="2.03501">
        <ele>172.632</ele>
        <time>2013-08-06T15:15:56Z</time>
      </trkpt>
      <trkpt lat="48.75592" lon="2.03445">
        <ele>172.775</ele>
        <time>2013-08-06T15:16:02Z</time>
      </trkpt>
      <trkpt lat="48.75592" lon="2.03437">
        <ele>172.801</ele>
        <time>2013-08-06T15:16:03Z</time>
      </trkpt>
      <trkpt lat="48.75599" lon="2.03397">
        <ele>172.823</ele>
        <time>2013-08-06T15:16:09Z</time>
      </trkpt>
      <trkpt lat="48.75603" lon="2.03385">
        <ele>172.885</ele>
        <time>2013-08-06T15:16:11Z</time>
      </trkpt>
      <trkpt lat="48.75613" lon="2.03345">
        <ele>172.461</ele>
        <time>2013-08-06T15:16:17Z</time>
      </trkpt>
      <trkpt lat="48.75612" lon="2.03305">
        <ele>171.435</ele>
        <time>2013-08-06T15:16:22Z</time>
      </trkpt>
      <trkpt lat="48.7561" lon="2.03277">
        <ele>171.059</ele>
        <time>2013-08-06T15:16:25Z</time>
      </trkpt>
      <trkpt lat="48.7561" lon="2.0324">
        <ele>170.277</ele>
        <time>2013-08-06T15:16:29Z</time>
      </trkpt>
      <trkpt lat="48.75613" lon="2.03221">
        <ele>169.791</ele>
        <time>2013-08-06T15:16:31Z</time>
      </trkpt>
      <trkpt lat="48.75617" lon="2.03196">
        <ele>169.17</ele>
        <time>2013-08-06T15:16:34Z</time>
      </trkpt>
      <trkpt lat="48.75614" lon="2.03156">
        <ele>168.164</ele>
        <time>2013-08-06T15:16:38Z</time>
      </trkpt>
      <trkpt lat="48.75616" lon="2.03094">
        <ele>165.818</ele>
        <time>2013-08-06T15:16:43Z</time>
      </trkpt>
      <trkpt lat="48.75618" lon="2.03081">
        <ele>165.307</ele>
        <time>2013-08-06T15:16:44Z</time>
      </trkpt>
      <trkpt lat="48.75631" lon="2.03039">
        <ele>164.225</ele>
        <time>2013-08-06T15:16:48Z</time>
      </trkpt>
      <trkpt lat="48.75648" lon="2.0302">
        <ele>164.574</ele>
        <time>2013-08-06T15:16:52Z</time>
      </trkpt>
      <trkpt lat="48.75656" lon="2.03012">
        <ele>165.205</ele>
        <time>2013-08-06T15:16:54Z</time>
      </trkpt>
      <trkpt lat="48.7566" lon="2.03">
        <ele>165.805</ele>
        <time>2013-08-06T15:16:56Z</time>
      </trkpt>
      <trkpt lat="48.75663" lon="2.02975">
        <ele>166.022</ele>
        <time>2013-08-06T15:17:00Z</time>
      </trkpt>
      <trkpt lat="48.75661" lon="2.02961">
        <ele>165.81</ele>
        <time>2013-08-06T15:17:02Z</time>
      </trkpt>
      <trkpt lat="48.75652" lon="2.02904">
        <ele>164.513</ele>
        <time>2013-08-06T15:17:09Z</time>
      </trkpt>
      <trkpt lat="48.75644" lon="2.02858">
        <ele>164.078</ele>
        <time>2013-08-06T15:17:15Z</time>
      </trkpt>
      <trkpt lat="48.7564" lon="2.02825">
        <ele>164.536</ele>
        <time>2013-08-06T15:17:20Z</time>
      </trkpt>
      <trkpt lat="48.75642" lon="2.02807">
        <ele>164.91</ele>
        <time>2013-08-06T15:17:23Z</time>
      </trkpt>
      <trkpt lat="48.75644" lon="2.02795">
        <ele>165.119</ele>
        <time>2013-08-06T15:17:25Z</time>
      </trkpt>
      <trkpt lat="48.7565" lon="2.02773">
        <ele>165.517</ele>
        <time>2013-08-06T15:17:29Z</time>
      </trkpt>
      <trkpt lat="48.75656" lon="2.02746">
        <ele>165.974</ele>
        <time>2013-08-06T15:17:34Z</time>
      </trkpt>
      <trkpt lat="48.75662" lon="2.02715">
        <ele>166.064</ele>
        <time>2013-08-06T15:17:39Z</time>
      </trkpt>
      <trkpt lat="48.75663" lon="2.02702">
        <ele>166.014</ele>
        <time>2013-08-06T15:17:41Z</time>
      </trkpt>
      <trkpt lat="48.75671" lon="2.02685">
        <ele>166.186</ele>
        <time>2013-08-06T15:17:45Z</time>
      </trkpt>
      <trkpt lat="48.75685" lon="2.02662">
        <ele>166.707</ele>
        <time>2013-08-06T15:17:51Z</time>
      </trkpt>
      <trkpt lat="48.75702" lon="2.02634">
        <ele>167.58</ele>
        <time>2013-08-06T15:17:59Z</time>
      </trkpt>
      <trkpt lat="48.75703" lon="2.02631">
        <ele>167.701</ele>
        <time>2013-08-06T15:18:00Z</time>
      </trkpt>
      <trkpt lat="48.75706" lon="2.02622">
        <ele>167.933</ele>
        <time>2013-08-06T15:18:02Z</time>
      </trkpt>
      <trkpt lat="48.7572" lon="2.02594">
        <ele>168.405</ele>
        <time>2013-08-06T15:18:09Z</time>
      </trkpt>
      <trkpt lat="48.75725" lon="2.02566">
        <ele>168.784</ele>
        <time>2013-08-06T15:18:15Z</time>
      </trkpt>
      <trkpt lat="48.75727" lon="2.02557">
        <ele>168.935</ele>
        <time>2013-08-06T15:18:17Z</time>
      </trkpt>
      <trkpt lat="48.7573" lon="2.02547">
        <ele>168.979</ele>
        <time>2013-08-06T15:18:19Z</time>
      </trkpt>
      <trkpt lat="48.75732" lon="2.02539">
        <ele>169.048</ele>
        <time>2013-08-06T15:18:21Z</time>
      </trkpt>
      <trkpt lat="48.75742" lon="2.02507">
        <ele>169.145</ele>
        <time>2013-08-06T15:18:28Z</time>
      </trkpt>
      <trkpt lat="48.75752" lon="2.02483">
        <ele>169.178</ele>
        <time>2013-08-06T15:18:33Z</time>
      </trkpt>
      <trkpt lat="48.75757" lon="2.02475">
        <ele>169.165</ele>
        <time>2013-08-06T15:18:35Z</time>
      </trkpt>
      <trkpt lat="48.75764" lon="2.0246">
        <ele>169.076</ele>
        <time>2013-08-06T15:18:38Z</time>
      </trkpt>
      <trkpt lat="48.75774" lon="2.02435">
        <ele>168.599</ele>
        <time>2013-08-06T15:18:43Z</time>
      </trkpt>
      <trkpt lat="48.75779" lon="2.02413">
        <ele>168.301</ele>
        <time>2013-08-06T15:18:47Z</time>
      </trkpt>
      <trkpt lat="48.75796" lon="2.02382">
        <ele>168.177</ele>
        <time>2013-08-06T15:18:54Z</time>
      </trkpt>
      <trkpt lat="48.7581" lon="2.0237">
        <ele>168.759</ele>
        <time>2013-08-06T15:19:00Z</time>
      </trkpt>
      <trkpt lat="48.75812" lon="2.02368">
        <ele>168.951</ele>
        <time>2013-08-06T15:19:02Z</time>
      </trkpt>
      <trkpt lat="48.75814" lon="2.02349">
        <ele>169.18</ele>
        <time>2013-08-06T15:19:07Z</time>
      </trkpt>
      <trkpt lat="48.7587" lon="2.02327">
        <ele>169.116</ele>
        <time>2013-08-06T15:19:12Z</time>
      </trkpt>
      <trkpt lat="48.75885" lon="2.02306">
        <ele>169.048</ele>
        <time>2013-08-06T15:19:16Z</time>
      </trkpt>
      <trkpt lat="48.7589" lon="2.02284">
        <ele>168.863</ele>
        <time>2013-08-06T15:19:21Z</time>
      </trkpt>
      <trkpt lat="48.75895" lon="2.02281">
        <ele>169.104</ele>
        <time>2013-08-06T15:19:26Z</time>
      </trkpt>
      <trkpt lat="48.759" lon="2.02265">
        <ele>169.515</ele>
        <time>2013-08-06T15:19:32Z</time>
      </trkpt>
      <trkpt lat="48.759" lon="2.02256">
        <ele>169.546</ele>
        <time>2013-08-06T15:19:34Z</time>
      </trkpt>
      <trkpt lat="48.75901" lon="2.02246">
        <ele>169.548</ele>
        <time>2013-08-06T15:19:36Z</time>
      </trkpt>
      <trkpt lat="48.75905" lon="2.02214">
        <ele>169.77</ele>
        <time>2013-08-06T15:19:42Z</time>
      </trkpt>
      <trkpt lat="48.75908" lon="2.02192">
        <ele>169.964</ele>
        <time>2013-08-06T15:19:46Z</time>
      </trkpt>
      <trkpt lat="48.75911" lon="2.02177">
        <ele>170.182</ele>
        <time>2013-08-06T15:19:49Z</time>
      </trkpt>
      <trkpt lat="48.75916" lon="2.0215">
        <ele>170.067</ele>
        <time>2013-08-06T15:19:55Z</time>
      </trkpt>
      <trkpt lat="48.75923" lon="2.02141">
        <ele>170.305</ele>
        <time>2013-08-06T15:19:59Z</time>
      </trkpt>
      <trkpt lat="48.7593" lon="2.0213">
        <ele>170.712</ele>
        <time>2013-08-06T15:20:04Z</time>
      </trkpt>
      <trkpt lat="48.75937" lon="2.02122">
        <ele>170.834</ele>
        <time>2013-08-06T15:20:07Z</time>
      </trkpt>
      <trkpt lat="48.75945" lon="2.02116">
        <ele>171.053</ele>
        <time>2013-08-06T15:20:10Z</time>
      </trkpt>
      <trkpt lat="48.75951" lon="2.02101">
        <ele>171.687</ele>
        <time>2013-08-06T15:20:15Z</time>
      </trkpt>
      <trkpt lat="48.75953" lon="2.02098">
        <ele>171.8</ele>
        <time>2013-08-06T15:20:16Z</time>
      </trkpt>
      <trkpt lat="48.7596" lon="2.02089">
        <ele>172.25</ele>
        <time>2013-08-06T15:20:20Z</time>
      </trkpt>
      <trkpt lat="48.75979" lon="2.02077">
        <ele>172.303</ele>
        <time>2013-08-06T15:20:25Z</time>
      </trkpt>
      <trkpt lat="48.75982" lon="2.02074">
        <ele>172.238</ele>
        <time>2013-08-06T15:20:26Z</time>
      </trkpt>
      <trkpt lat="48.75983" lon="2.02063">
        <ele>172.105</ele>
        <time>2013-08-06T15:20:30Z</time>
      </trkpt>
      <trkpt lat="48.75989" lon="2.02051">
        <ele>172.084</ele>
        <time>2013-08-06T15:20:36Z</time>
      </trkpt>
      <trkpt lat="48.76007" lon="2.0205">
        <ele>172.176</ele>
        <time>2013-08-06T15:20:47Z</time>
      </trkpt>
      <trkpt lat="48.76009" lon="2.02051">
        <ele>172.221</ele>
        <time>2013-08-06T15:20:55Z</time>
      </trkpt>
      <trkpt lat="48.7601" lon="2.02047">
        <ele>172.235</ele>
        <time>2013-08-06T15:21:01Z</time>
      </trkpt>
      <trkpt lat="48.76019" lon="2.02038">
        <ele>172.46</ele>
        <time>2013-08-06T15:21:06Z</time>
      </trkpt>
      <trkpt lat="48.76028" lon="2.02018">
        <ele>173.017</ele>
        <time>2013-08-06T15:21:11Z</time>
      </trkpt>
      <trkpt lat="48.76038" lon="2.01989">
        <ele>173.261</ele>
        <time>2013-08-06T15:21:17Z</time>
      </trkpt>
      <trkpt lat="48.7604" lon="2.01963">
        <ele>173.36</ele>
        <time>2013-08-06T15:21:22Z</time>
      </trkpt>
      <trkpt lat="48.7604" lon="2.01946">
        <ele>173.353</ele>
        <time>2013-08-06T15:21:25Z</time>
      </trkpt>
      <trkpt lat="48.76036" lon="2.01908">
        <ele>172.996</ele>
        <time>2013-08-06T15:21:31Z</time>
      </trkpt>
      <trkpt lat="48.76036" lon="2.01896">
        <ele>172.86</ele>
        <time>2013-08-06T15:21:33Z</time>
      </trkpt>
      <trkpt lat="48.76038" lon="2.01877">
        <ele>172.78</ele>
        <time>2013-08-06T15:21:36Z</time>
      </trkpt>
      <trkpt lat="48.76038" lon="2.0184">
        <ele>172.719</ele>
        <time>2013-08-06T15:21:42Z</time>
      </trkpt>
      <trkpt lat="48.76037" lon="2.01791">
        <ele>172.68</ele>
        <time>2013-08-06T15:21:50Z</time>
      </trkpt>
      <trkpt lat="48.76036" lon="2.01756">
        <ele>172.77</ele>
        <time>2013-08-06T15:21:56Z</time>
      </trkpt>
      <trkpt lat="48.76036" lon="2.01746">
        <ele>172.714</ele>
        <time>2013-08-06T15:21:58Z</time>
      </trkpt>
      <trkpt lat="48.76041" lon="2.01723">
        <ele>172.583</ele>
        <time>2013-08-06T15:22:04Z</time>
      </trkpt>
      <trkpt lat="48.76043" lon="2.01692">
        <ele>172.615</ele>
        <time>2013-08-06T15:22:10Z</time>
      </trkpt>
      <trkpt lat="48.76045" lon="2.01654">
        <ele>172.581</ele>
        <time>2013-08-06T15:22:16Z</time>
      </trkpt>
      <trkpt lat="48.76045" lon="2.01642">
        <ele>172.54</ele>
        <time>2013-08-06T15:22:18Z</time>
      </trkpt>
      <trkpt lat="48.76046" lon="2.0163">
        <ele>172.446</ele>
        <time>2013-08-06T15:22:20Z</time>
      </trkpt>
      <trkpt lat="48.76047" lon="2.01611">
        <ele>172.473</ele>
        <time>2013-08-06T15:22:23Z</time>
      </trkpt>
      <trkpt lat="48.76048" lon="2.01564">
        <ele>172.595</ele>
        <time>2013-08-06T15:22:30Z</time>
      </trkpt>
      <trkpt lat="48.76048" lon="2.01558">
        <ele>172.537</ele>
        <time>2013-08-06T15:22:31Z</time>
      </trkpt>
      <trkpt lat="48.76054" lon="2.01519">
        <ele>172.636</ele>
        <time>2013-08-06T15:22:37Z</time>
      </trkpt>
      <trkpt lat="48.76059" lon="2.01492">
        <ele>172.464</ele>
        <time>2013-08-06T15:22:41Z</time>
      </trkpt>
      <trkpt lat="48.76073" lon="2.0146">
        <ele>171.996</ele>
        <time>2013-08-06T15:22:47Z</time>
      </trkpt>
      <trkpt lat="48.76083" lon="2.01459">
        <ele>171.996</ele>
        <time>2013-08-06T15:22:50Z</time>
      </trkpt>
      <trkpt lat="48.76094" lon="2.01468">
        <ele>172.365</ele>
        <time>2013-08-06T15:22:54Z</time>
      </trkpt>
      <trkpt lat="48.76112" lon="2.01482">
        <ele>173.224</ele>
        <time>2013-08-06T15:23:01Z</time>
      </trkpt>
      <trkpt lat="48.76126" lon="2.01467">
        <ele>173.523</ele>
        <time>2013-08-06T15:23:05Z</time>
      </trkpt>
      <trkpt lat="48.76123" lon="2.01444">
        <ele>173.59</ele>
        <time>2013-08-06T15:23:09Z</time>
      </trkpt>
      <trkpt lat="48.76121" lon="2.01438">
        <ele>173.521</ele>
        <time>2013-08-06T15:23:10Z</time>
      </trkpt>
      <trkpt lat="48.7612" lon="2.0141">
        <ele>172.924</ele>
        <time>2013-08-06T15:23:14Z</time>
      </trkpt>
      <trkpt lat="48.76123" lon="2.01396">
        <ele>172.573</ele>
        <time>2013-08-06T15:23:16Z</time>
      </trkpt>
      <trkpt lat="48.76128" lon="2.01381">
        <ele>172.156</ele>
        <time>2013-08-06T15:23:18Z</time>
      </trkpt>
      <trkpt lat="48.76129" lon="2.01359">
        <ele>171.976</ele>
        <time>2013-08-06T15:23:21Z</time>
      </trkpt>
      <trkpt lat="48.76129" lon="2.01343">
        <ele>171.89</ele>
        <time>2013-08-06T15:23:23Z</time>
      </trkpt>
      <trkpt lat="48.76133" lon="2.01293">
        <ele>172.035</ele>
        <time>2013-08-06T15:23:30Z</time>
      </trkpt>
      <trkpt lat="48.7614" lon="2.01259">
        <ele>171.826</ele>
        <time>2013-08-06T15:23:35Z</time>
      </trkpt>
      <trkpt lat="48.76143" lon="2.01254">
        <ele>171.792</ele>
        <time>2013-08-06T15:23:36Z</time>
      </trkpt>
      <trkpt lat="48.76156" lon="2.01237">
        <ele>171.719</ele>
        <time>2013-08-06T15:23:40Z</time>
      </trkpt>
      <trkpt lat="48.76166" lon="2.01222">
        <ele>171.692</ele>
        <time>2013-08-06T15:23:44Z</time>
      </trkpt>
      <trkpt lat="48.76176" lon="2.01212">
        <ele>171.66</ele>
        <time>2013-08-06T15:23:47Z</time>
      </trkpt>
      <trkpt lat="48.76182" lon="2.01205">
        <ele>171.699</ele>
        <time>2013-08-06T15:23:49Z</time>
      </trkpt>
      <trkpt lat="48.76191" lon="2.01188">
        <ele>171.696</ele>
        <time>2013-08-06T15:23:54Z</time>
      </trkpt>
      <trkpt lat="48.76196" lon="2.01179">
        <ele>171.664</ele>
        <time>2013-08-06T15:23:56Z</time>
      </trkpt>
      <trkpt lat="48.76207" lon="2.01132">
        <ele>171.774</ele>
        <time>2013-08-06T15:24:04Z</time>
      </trkpt>
      <trkpt lat="48.76237" lon="2.01061">
        <ele>172.162</ele>
        <time>2013-08-06T15:24:15Z</time>
      </trkpt>
      <trkpt lat="48.7625" lon="2.01005">
        <ele>172.414</ele>
        <time>2013-08-06T15:24:24Z</time>
      </trkpt>
      <trkpt lat="48.76264" lon="2.0095">
        <ele>172.732</ele>
        <time>2013-08-06T15:24:33Z</time>
      </trkpt>
      <trkpt lat="48.76266" lon="2.00944">
        <ele>172.763</ele>
        <time>2013-08-06T15:24:34Z</time>
      </trkpt>
      <trkpt lat="48.76272" lon="2.00897">
        <ele>172.821</ele>
        <time>2013-08-06T15:24:41Z</time>
      </trkpt>
      <trkpt lat="48.76266" lon="2.00873">
        <ele>172.739</ele>
        <time>2013-08-06T15:24:45Z</time>
      </trkpt>
      <trkpt lat="48.76259" lon="2.00866">
        <ele>172.733</ele>
        <time>2013-08-06T15:24:47Z</time>
      </trkpt>
      <trkpt lat="48.76232" lon="2.00848">
        <ele>172.584</ele>
        <time>2013-08-06T15:24:54Z</time>
      </trkpt>
      <trkpt lat="48.76206" lon="2.00828">
        <ele>172.728</ele>
        <time>2013-08-06T15:25:01Z</time>
      </trkpt>
      <trkpt lat="48.76185" lon="2.00808">
        <ele>172.833</ele>
        <time>2013-08-06T15:25:07Z</time>
      </trkpt>
      <trkpt lat="48.76164" lon="2.00786">
        <ele>173.042</ele>
        <time>2013-08-06T15:25:13Z</time>
      </trkpt>
      <trkpt lat="48.76157" lon="2.0078">
        <ele>173.044</ele>
        <time>2013-08-06T15:25:15Z</time>
      </trkpt>
      <trkpt lat="48.76124" lon="2.00757">
        <ele>172.843</ele>
        <time>2013-08-06T15:25:23Z</time>
      </trkpt>
      <trkpt lat="48.76109" lon="2.00744">
        <ele>172.77</ele>
        <time>2013-08-06T15:25:27Z</time>
      </trkpt>
      <trkpt lat="48.76091" lon="2.00743">
        <ele>172.546</ele>
        <time>2013-08-06T15:25:31Z</time>
      </trkpt>
      <trkpt lat="48.76083" lon="2.0075">
        <ele>172.462</ele>
        <time>2013-08-06T15:25:33Z</time>
      </trkpt>
      <trkpt lat="48.76064" lon="2.00764">
        <ele>172.185</ele>
        <time>2013-08-06T15:25:38Z</time>
      </trkpt>
      <trkpt lat="48.76054" lon="2.00753">
        <ele>172.085</ele>
        <time>2013-08-06T15:25:41Z</time>
      </trkpt>
      <trkpt lat="48.76051" lon="2.00747">
        <ele>172.019</ele>
        <time>2013-08-06T15:25:42Z</time>
      </trkpt>
      <trkpt lat="48.76031" lon="2.00708">
        <ele>171.988</ele>
        <time>2013-08-06T15:25:49Z</time>
      </trkpt>
      <trkpt lat="48.7601" lon="2.00663">
        <ele>172.05</ele>
        <time>2013-08-06T15:25:57Z</time>
      </trkpt>
      <trkpt lat="48.76005" lon="2.00651">
        <ele>172.042</ele>
        <time>2013-08-06T15:25:59Z</time>
      </trkpt>
      <trkpt lat="48.75995" lon="2.00627">
        <ele>172.123</ele>
        <time>2013-08-06T15:26:03Z</time>
      </trkpt>
      <trkpt lat="48.75976" lon="2.00588">
        <ele>172.333</ele>
        <time>2013-08-06T15:26:10Z</time>
      </trkpt>
      <trkpt lat="48.75962" lon="2.00559">
        <ele>172.412</ele>
        <time>2013-08-06T15:26:15Z</time>
      </trkpt>
      <trkpt lat="48.75945" lon="2.0052">
        <ele>172.802</ele>
        <time>2013-08-06T15:26:22Z</time>
      </trkpt>
      <trkpt lat="48.75943" lon="2.00515">
        <ele>172.839</ele>
        <time>2013-08-06T15:26:23Z</time>
      </trkpt>
      <trkpt lat="48.75937" lon="2.00499">
        <ele>172.869</ele>
        <time>2013-08-06T15:26:26Z</time>
      </trkpt>
      <trkpt lat="48.75922" lon="2.00457">
        <ele>173.108</ele>
        <time>2013-08-06T15:26:34Z</time>
      </trkpt>
      <trkpt lat="48.75915" lon="2.0043">
        <ele>173.363</ele>
        <time>2013-08-06T15:26:39Z</time>
      </trkpt>
      <trkpt lat="48.75906" lon="2.00401">
        <ele>173.63</ele>
        <time>2013-08-06T15:26:45Z</time>
      </trkpt>
      <trkpt lat="48.75903" lon="2.00392">
        <ele>173.689</ele>
        <time>2013-08-06T15:26:47Z</time>
      </trkpt>
      <trkpt lat="48.75897" lon="2.00375">
        <ele>173.8</ele>
        <time>2013-08-06T15:26:50Z</time>
      </trkpt>
      <trkpt lat="48.75886" lon="2.00353">
        <ele>173.964</ele>
        <time>2013-08-06T15:26:54Z</time>
      </trkpt>
      <trkpt lat="48.7588" lon="2.00333">
        <ele>174.17</ele>
        <time>2013-08-06T15:26:58Z</time>
      </trkpt>
      <trkpt lat="48.75866" lon="2.00305">
        <ele>174.295</ele>
        <time>2013-08-06T15:27:03Z</time>
      </trkpt>
      <trkpt lat="48.75855" lon="2.00288">
        <ele>174.356</ele>
        <time>2013-08-06T15:27:06Z</time>
      </trkpt>
      <trkpt lat="48.75842" lon="2.00254">
        <ele>174.737</ele>
        <time>2013-08-06T15:27:12Z</time>
      </trkpt>
      <trkpt lat="48.75829" lon="2.0022">
        <ele>175.024</ele>
        <time>2013-08-06T15:27:18Z</time>
      </trkpt>
      <trkpt lat="48.7582" lon="2.00204">
        <ele>175.252</ele>
        <time>2013-08-06T15:27:21Z</time>
      </trkpt>
      <trkpt lat="48.75815" lon="2.00188">
        <ele>175.35</ele>
        <time>2013-08-06T15:27:24Z</time>
      </trkpt>
      <trkpt lat="48.75806" lon="2.00166">
        <ele>175.394</ele>
        <time>2013-08-06T15:27:28Z</time>
      </trkpt>
      <trkpt lat="48.7579" lon="2.00126">
        <ele>175.569</ele>
        <time>2013-08-06T15:27:35Z</time>
      </trkpt>
      <trkpt lat="48.75788" lon="2.00121">
        <ele>175.647</ele>
        <time>2013-08-06T15:27:36Z</time>
      </trkpt>
      <trkpt lat="48.75774" lon="2.00088">
        <ele>175.949</ele>
        <time>2013-08-06T15:27:42Z</time>
      </trkpt>
      <trkpt lat="48.75771" lon="2.00077">
        <ele>176.046</ele>
        <time>2013-08-06T15:27:44Z</time>
      </trkpt>
      <trkpt lat="48.75761" lon="2.00054">
        <ele>176.178</ele>
        <time>2013-08-06T15:27:48Z</time>
      </trkpt>
      <trkpt lat="48.75755" lon="2.00043">
        <ele>176.306</ele>
        <time>2013-08-06T15:27:50Z</time>
      </trkpt>
      <trkpt lat="48.75741" lon="2.00017">
        <ele>176.479</ele>
        <time>2013-08-06T15:27:55Z</time>
      </trkpt>
      <trkpt lat="48.75728" lon="1.99992">
        <ele>176.623</ele>
        <time>2013-08-06T15:28:00Z</time>
      </trkpt>
      <trkpt lat="48.75716" lon="1.99951">
        <ele>177.188</ele>
        <time>2013-08-06T15:28:08Z</time>
      </trkpt>
      <trkpt lat="48.7571" lon="1.99935">
        <ele>177.227</ele>
        <time>2013-08-06T15:28:13Z</time>
      </trkpt>
      <trkpt lat="48.75709" lon="1.99933">
        <ele>177.197</ele>
        <time>2013-08-06T15:28:14Z</time>
      </trkpt>
      <trkpt lat="48.75703" lon="1.99936">
        <ele>177.441</ele>
        <time>2013-08-06T15:28:18Z</time>
      </trkpt>
      <trkpt lat="48.75701" lon="1.99943">
        <ele>177.573</ele>
        <time>2013-08-06T15:28:20Z</time>
      </trkpt>
      <trkpt lat="48.75688" lon="1.99966">
        <ele>177.397</ele>
        <time>2013-08-06T15:28:27Z</time>
      </trkpt>
      <trkpt lat="48.75653" lon="2.00003">
        <ele>177.277</ele>
        <time>2013-08-06T15:28:37Z</time>
      </trkpt>
      <trkpt lat="48.7563" lon="2.00031">
        <ele>177.1</ele>
        <time>2013-08-06T15:28:44Z</time>
      </trkpt>
      <trkpt lat="48.75601" lon="2.0007">
        <ele>176.94</ele>
        <time>2013-08-06T15:28:53Z</time>
      </trkpt>
      <trkpt lat="48.75577" lon="2.001">
        <ele>176.578</ele>
        <time>2013-08-06T15:29:00Z</time>
      </trkpt>
      <trkpt lat="48.75547" lon="2.00133">
        <ele>176.72</ele>
        <time>2013-08-06T15:29:08Z</time>
      </trkpt>
      <trkpt lat="48.75514" lon="2.00171">
        <ele>176.613</ele>
        <time>2013-08-06T15:29:17Z</time>
      </trkpt>
      <trkpt lat="48.75473" lon="2.00215">
        <ele>176.492</ele>
        <time>2013-08-06T15:29:28Z</time>
      </trkpt>
      <trkpt lat="48.7546" lon="2.00231">
        <ele>176.494</ele>
        <time>2013-08-06T15:29:32Z</time>
      </trkpt>
      <trkpt lat="48.75449" lon="2.00243">
        <ele>176.601</ele>
        <time>2013-08-06T15:29:35Z</time>
      </trkpt>
      <trkpt lat="48.75429" lon="2.00266">
        <ele>176.751</ele>
        <time>2013-08-06T15:29:41Z</time>
      </trkpt>
      <trkpt lat="48.75419" lon="2.00279">
        <ele>176.576</ele>
        <time>2013-08-06T15:29:44Z</time>
      </trkpt>
      <trkpt lat="48.75414" lon="2.00288">
        <ele>176.673</ele>
        <time>2013-08-06T15:29:46Z</time>
      </trkpt>
      <trkpt lat="48.75405" lon="2.003">
        <ele>176.711</ele>
        <time>2013-08-06T15:29:49Z</time>
      </trkpt>
      <trkpt lat="48.75388" lon="2.00322">
        <ele>177.017</ele>
        <time>2013-08-06T15:29:54Z</time>
      </trkpt>
      <trkpt lat="48.75378" lon="2.00335">
        <ele>176.98</ele>
        <time>2013-08-06T15:29:57Z</time>
      </trkpt>
      <trkpt lat="48.75366" lon="2.00351">
        <ele>176.824</ele>
        <time>2013-08-06T15:30:01Z</time>
      </trkpt>
      <trkpt lat="48.75358" lon="2.00358">
        <ele>176.753</ele>
        <time>2013-08-06T15:30:03Z</time>
      </trkpt>
      <trkpt lat="48.7535" lon="2.00366">
        <ele>176.68</ele>
        <time>2013-08-06T15:30:05Z</time>
      </trkpt>
      <trkpt lat="48.75337" lon="2.00382">
        <ele>176.739</ele>
        <time>2013-08-06T15:30:09Z</time>
      </trkpt>
      <trkpt lat="48.75308" lon="2.00416">
        <ele>176.888</ele>
        <time>2013-08-06T15:30:17Z</time>
      </trkpt>
      <trkpt lat="48.75285" lon="2.00445">
        <ele>177.113</ele>
        <time>2013-08-06T15:30:24Z</time>
      </trkpt>
      <trkpt lat="48.75255" lon="2.00477">
        <ele>177.197</ele>
        <time>2013-08-06T15:30:32Z</time>
      </trkpt>
      <trkpt lat="48.75228" lon="2.00511">
        <ele>177.649</ele>
        <time>2013-08-06T15:30:40Z</time>
      </trkpt>
      <trkpt lat="48.75197" lon="2.00549">
        <ele>177.936</ele>
        <time>2013-08-06T15:30:49Z</time>
      </trkpt>
      <trkpt lat="48.7517" lon="2.00582">
        <ele>177.99</ele>
        <time>2013-08-06T15:30:57Z</time>
      </trkpt>
      <trkpt lat="48.75164" lon="2.0059">
        <ele>178.021</ele>
        <time>2013-08-06T15:30:59Z</time>
      </trkpt>
      <trkpt lat="48.75155" lon="2.00602">
        <ele>178.104</ele>
        <time>2013-08-06T15:31:02Z</time>
      </trkpt>
      <trkpt lat="48.75147" lon="2.00618">
        <ele>178.119</ele>
        <time>2013-08-06T15:31:06Z</time>
      </trkpt>
      <trkpt lat="48.75139" lon="2.00632">
        <ele>178.253</ele>
        <time>2013-08-06T15:31:09Z</time>
      </trkpt>
      <trkpt lat="48.75118" lon="2.00651">
        <ele>178.659</ele>
        <time>2013-08-06T15:31:14Z</time>
      </trkpt>
      <trkpt lat="48.75108" lon="2.0066">
        <ele>178.72</ele>
        <time>2013-08-06T15:31:17Z</time>
      </trkpt>
      <trkpt lat="48.75098" lon="2.00673">
        <ele>178.752</ele>
        <time>2013-08-06T15:31:20Z</time>
      </trkpt>
      <trkpt lat="48.75065" lon="2.0071">
        <ele>178.984</ele>
        <time>2013-08-06T15:31:29Z</time>
      </trkpt>
      <trkpt lat="48.75058" lon="2.00719">
        <ele>179.06</ele>
        <time>2013-08-06T15:31:31Z</time>
      </trkpt>
      <trkpt lat="48.75047" lon="2.0073">
        <ele>179.239</ele>
        <time>2013-08-06T15:31:34Z</time>
      </trkpt>
      <trkpt lat="48.75014" lon="2.0077">
        <ele>179.568</ele>
        <time>2013-08-06T15:31:43Z</time>
      </trkpt>
      <trkpt lat="48.74998" lon="2.00796">
        <ele>179.547</ele>
        <time>2013-08-06T15:31:48Z</time>
      </trkpt>
      <trkpt lat="48.74971" lon="2.00855">
        <ele>179.644</ele>
        <time>2013-08-06T15:31:58Z</time>
      </trkpt>
      <trkpt lat="48.74969" lon="2.00861">
        <ele>179.664</ele>
        <time>2013-08-06T15:31:59Z</time>
      </trkpt>
      <trkpt lat="48.74958" lon="2.00905">
        <ele>179.595</ele>
        <time>2013-08-06T15:32:06Z</time>
      </trkpt>
      <trkpt lat="48.74942" lon="2.00972">
        <ele>179.09</ele>
        <time>2013-08-06T15:32:16Z</time>
      </trkpt>
      <trkpt lat="48.74937" lon="2.00992">
        <ele>179.045</ele>
        <time>2013-08-06T15:32:19Z</time>
      </trkpt>
      <trkpt lat="48.7492" lon="2.01051">
        <ele>179.195</ele>
        <time>2013-08-06T15:32:28Z</time>
      </trkpt>
      <trkpt lat="48.74908" lon="2.01104">
        <ele>178.975</ele>
        <time>2013-08-06T15:32:36Z</time>
      </trkpt>
      <trkpt lat="48.74896" lon="2.01155">
        <ele>178.732</ele>
        <time>2013-08-06T15:32:44Z</time>
      </trkpt>
      <trkpt lat="48.7488" lon="2.01219">
        <ele>178.658</ele>
        <time>2013-08-06T15:32:54Z</time>
      </trkpt>
      <trkpt lat="48.74869" lon="2.01272">
        <ele>178.446</ele>
        <time>2013-08-06T15:33:02Z</time>
      </trkpt>
      <trkpt lat="48.7486" lon="2.01326">
        <ele>178.091</ele>
        <time>2013-08-06T15:33:10Z</time>
      </trkpt>
      <trkpt lat="48.74853" lon="2.01373">
        <ele>177.677</ele>
        <time>2013-08-06T15:33:17Z</time>
      </trkpt>
      <trkpt lat="48.74848" lon="2.01431">
        <ele>177.518</ele>
        <time>2013-08-06T15:33:25Z</time>
      </trkpt>
      <trkpt lat="48.74851" lon="2.0148">
        <ele>177.198</ele>
        <time>2013-08-06T15:33:32Z</time>
      </trkpt>
      <trkpt lat="48.74852" lon="2.01492">
        <ele>177.073</ele>
        <time>2013-08-06T15:33:34Z</time>
      </trkpt>
      <trkpt lat="48.74851" lon="2.01548">
        <ele>177.127</ele>
        <time>2013-08-06T15:33:43Z</time>
      </trkpt>
      <trkpt lat="48.74848" lon="2.01601">
        <ele>177.257</ele>
        <time>2013-08-06T15:33:51Z</time>
      </trkpt>
      <trkpt lat="48.7484" lon="2.01633">
        <ele>177.124</ele>
        <time>2013-08-06T15:33:56Z</time>
      </trkpt>
      <trkpt lat="48.74826" lon="2.01655">
        <ele>176.879</ele>
        <time>2013-08-06T15:34:00Z</time>
      </trkpt>
      <trkpt lat="48.74819" lon="2.01663">
        <ele>176.643</ele>
        <time>2013-08-06T15:34:02Z</time>
      </trkpt>
      <trkpt lat="48.74808" lon="2.01693">
        <ele>176.394</ele>
        <time>2013-08-06T15:34:07Z</time>
      </trkpt>
      <trkpt lat="48.74792" lon="2.01762">
        <ele>175.732</ele>
        <time>2013-08-06T15:34:17Z</time>
      </trkpt>
      <trkpt lat="48.74771" lon="2.01828">
        <ele>175.284</ele>
        <time>2013-08-06T15:34:27Z</time>
      </trkpt>
      <trkpt lat="48.74761" lon="2.01861">
        <ele>174.777</ele>
        <time>2013-08-06T15:34:32Z</time>
      </trkpt>
      <trkpt lat="48.74756" lon="2.0188">
        <ele>174.595</ele>
        <time>2013-08-06T15:34:35Z</time>
      </trkpt>
      <trkpt lat="48.74749" lon="2.01903">
        <ele>174.257</ele>
        <time>2013-08-06T15:34:39Z</time>
      </trkpt>
      <trkpt lat="48.74745" lon="2.01921">
        <ele>174.091</ele>
        <time>2013-08-06T15:34:42Z</time>
      </trkpt>
      <trkpt lat="48.74737" lon="2.01938">
        <ele>173.877</ele>
        <time>2013-08-06T15:34:45Z</time>
      </trkpt>
      <trkpt lat="48.74729" lon="2.01964">
        <ele>173.585</ele>
        <time>2013-08-06T15:34:49Z</time>
      </trkpt>
      <trkpt lat="48.74713" lon="2.01999">
        <ele>173.323</ele>
        <time>2013-08-06T15:34:54Z</time>
      </trkpt>
      <trkpt lat="48.74708" lon="2.02013">
        <ele>173.18</ele>
        <time>2013-08-06T15:34:56Z</time>
      </trkpt>
      <trkpt lat="48.74695" lon="2.02039">
        <ele>173.112</ele>
        <time>2013-08-06T15:35:00Z</time>
      </trkpt>
      <trkpt lat="48.74682" lon="2.02082">
        <ele>172.996</ele>
        <time>2013-08-06T15:35:06Z</time>
      </trkpt>
      <trkpt lat="48.74671" lon="2.02116">
        <ele>172.879</ele>
        <time>2013-08-06T15:35:11Z</time>
      </trkpt>
      <trkpt lat="48.74661" lon="2.02137">
        <ele>172.813</ele>
        <time>2013-08-06T15:35:15Z</time>
      </trkpt>
      <trkpt lat="48.74656" lon="2.02147">
        <ele>172.809</ele>
        <time>2013-08-06T15:35:17Z</time>
      </trkpt>
      <trkpt lat="48.74647" lon="2.02175">
        <ele>172.745</ele>
        <time>2013-08-06T15:35:22Z</time>
      </trkpt>
      <trkpt lat="48.74635" lon="2.02208">
        <ele>172.761</ele>
        <time>2013-08-06T15:35:28Z</time>
      </trkpt>
      <trkpt lat="48.74627" lon="2.0221">
        <ele>172.919</ele>
        <time>2013-08-06T15:35:31Z</time>
      </trkpt>
      <trkpt lat="48.74617" lon="2.02202">
        <ele>172.984</ele>
        <time>2013-08-06T15:35:36Z</time>
      </trkpt>
      <trkpt lat="48.74613" lon="2.02186">
        <ele>172.597</ele>
        <time>2013-08-06T15:35:41Z</time>
      </trkpt>
      <trkpt lat="48.74608" lon="2.02185">
        <ele>172.215</ele>
        <time>2013-08-06T15:35:47Z</time>
      </trkpt>
      <trkpt lat="48.74601" lon="2.02194">
        <ele>172.366</ele>
        <time>2013-08-06T15:35:52Z</time>
      </trkpt>
      <trkpt lat="48.74593" lon="2.02209">
        <ele>172.893</ele>
        <time>2013-08-06T15:35:56Z</time>
      </trkpt>
      <trkpt lat="48.7459" lon="2.02212">
        <ele>173.13</ele>
        <time>2013-08-06T15:35:57Z</time>
      </trkpt>
      <trkpt lat="48.74579" lon="2.02223">
        <ele>173.799</ele>
        <time>2013-08-06T15:36:01Z</time>
      </trkpt>
      <trkpt lat="48.74576" lon="2.02226">
        <ele>173.964</ele>
        <time>2013-08-06T15:36:02Z</time>
      </trkpt>
      <trkpt lat="48.7455" lon="2.02257">
        <ele>174.441</ele>
        <time>2013-08-06T15:36:11Z</time>
      </trkpt>
      <trkpt lat="48.7453" lon="2.02285">
        <ele>174.605</ele>
        <time>2013-08-06T15:36:18Z</time>
      </trkpt>
      <trkpt lat="48.74517" lon="2.02304">
        <ele>174.694</ele>
        <time>2013-08-06T15:36:23Z</time>
      </trkpt>
      <trkpt lat="48.74504" lon="2.02323">
        <ele>174.805</ele>
        <time>2013-08-06T15:36:28Z</time>
      </trkpt>
      <trkpt lat="48.74487" lon="2.02356">
        <ele>175.175</ele>
        <time>2013-08-06T15:36:35Z</time>
      </trkpt>
      <trkpt lat="48.74478" lon="2.02391">
        <ele>175.142</ele>
        <time>2013-08-06T15:36:41Z</time>
      </trkpt>
      <trkpt lat="48.74474" lon="2.02419">
        <ele>175.43</ele>
        <time>2013-08-06T15:36:46Z</time>
      </trkpt>
      <trkpt lat="48.74473" lon="2.02471">
        <ele>175.332</ele>
        <time>2013-08-06T15:36:54Z</time>
      </trkpt>
      <trkpt lat="48.74471" lon="2.02491">
        <ele>175.284</ele>
        <time>2013-08-06T15:36:57Z</time>
      </trkpt>
      <trkpt lat="48.74467" lon="2.02508">
        <ele>175.408</ele>
        <time>2013-08-06T15:37:00Z</time>
      </trkpt>
      <trkpt lat="48.74465" lon="2.02528">
        <ele>175.615</ele>
        <time>2013-08-06T15:37:03Z</time>
      </trkpt>
      <trkpt lat="48.74463" lon="2.02549">
        <ele>175.651</ele>
        <time>2013-08-06T15:37:06Z</time>
      </trkpt>
      <trkpt lat="48.74451" lon="2.02594">
        <ele>175.799</ele>
        <time>2013-08-06T15:37:13Z</time>
      </trkpt>
      <trkpt lat="48.74438" lon="2.02614">
        <ele>175.811</ele>
        <time>2013-08-06T15:37:17Z</time>
      </trkpt>
      <trkpt lat="48.74422" lon="2.02639">
        <ele>175.877</ele>
        <time>2013-08-06T15:37:23Z</time>
      </trkpt>
      <trkpt lat="48.74418" lon="2.02649">
        <ele>176.059</ele>
        <time>2013-08-06T15:37:25Z</time>
      </trkpt>
      <trkpt lat="48.74411" lon="2.02664">
        <ele>176.152</ele>
        <time>2013-08-06T15:37:28Z</time>
      </trkpt>
      <trkpt lat="48.74396" lon="2.02719">
        <ele>175.988</ele>
        <time>2013-08-06T15:37:37Z</time>
      </trkpt>
      <trkpt lat="48.74393" lon="2.02725">
        <ele>175.915</ele>
        <time>2013-08-06T15:37:38Z</time>
      </trkpt>
      <trkpt lat="48.74388" lon="2.02735">
        <ele>175.812</ele>
        <time>2013-08-06T15:37:40Z</time>
      </trkpt>
      <trkpt lat="48.74378" lon="2.02748">
        <ele>175.677</ele>
        <time>2013-08-06T15:37:43Z</time>
      </trkpt>
      <trkpt lat="48.74344" lon="2.02771">
        <ele>175.21</ele>
        <time>2013-08-06T15:37:51Z</time>
      </trkpt>
      <trkpt lat="48.74312" lon="2.02802">
        <ele>174.731</ele>
        <time>2013-08-06T15:37:59Z</time>
      </trkpt>
      <trkpt lat="48.74274" lon="2.02844">
        <ele>174.336</ele>
        <time>2013-08-06T15:38:09Z</time>
      </trkpt>
      <trkpt lat="48.74257" lon="2.02869">
        <ele>174.278</ele>
        <time>2013-08-06T15:38:14Z</time>
      </trkpt>
      <trkpt lat="48.7425" lon="2.02879">
        <ele>174.177</ele>
        <time>2013-08-06T15:38:16Z</time>
      </trkpt>
      <trkpt lat="48.74217" lon="2.02931">
        <ele>173.887</ele>
        <time>2013-08-06T15:38:26Z</time>
      </trkpt>
      <trkpt lat="48.74179" lon="2.02992">
        <ele>173.931</ele>
        <time>2013-08-06T15:38:38Z</time>
      </trkpt>
      <trkpt lat="48.74146" lon="2.0305">
        <ele>174.335</ele>
        <time>2013-08-06T15:38:49Z</time>
      </trkpt>
      <trkpt lat="48.74128" lon="2.03098">
        <ele>174.734</ele>
        <time>2013-08-06T15:38:57Z</time>
      </trkpt>
      <trkpt lat="48.74114" lon="2.03146">
        <ele>175.296</ele>
        <time>2013-08-06T15:39:05Z</time>
      </trkpt>
      <trkpt lat="48.74094" lon="2.03212">
        <ele>175.872</ele>
        <time>2013-08-06T15:39:16Z</time>
      </trkpt>
      <trkpt lat="48.74076" lon="2.03273">
        <ele>176.341</ele>
        <time>2013-08-06T15:39:26Z</time>
      </trkpt>
      <trkpt lat="48.7406" lon="2.03337">
        <ele>176.334</ele>
        <time>2013-08-06T15:39:36Z</time>
      </trkpt>
      <trkpt lat="48.74048" lon="2.03403">
        <ele>176.176</ele>
        <time>2013-08-06T15:39:46Z</time>
      </trkpt>
      <trkpt lat="48.74038" lon="2.03457">
        <ele>176.791</ele>
        <time>2013-08-06T15:39:54Z</time>
      </trkpt>
      <trkpt lat="48.74033" lon="2.03478">
        <ele>176.705</ele>
        <time>2013-08-06T15:39:57Z</time>
      </trkpt>
      <trkpt lat="48.74021" lon="2.03511">
        <ele>176.424</ele>
        <time>2013-08-06T15:40:02Z</time>
      </trkpt>
      <trkpt lat="48.73992" lon="2.03562">
        <ele>175.691</ele>
        <time>2013-08-06T15:40:11Z</time>
      </trkpt>
      <trkpt lat="48.73969" lon="2.03626">
        <ele>176.091</ele>
        <time>2013-08-06T15:40:21Z</time>
      </trkpt>
      <trkpt lat="48.73967" lon="2.03632">
        <ele>176.122</ele>
        <time>2013-08-06T15:40:22Z</time>
      </trkpt>
      <trkpt lat="48.73954" lon="2.03655">
        <ele>176.208</ele>
        <time>2013-08-06T15:40:26Z</time>
      </trkpt>
      <trkpt lat="48.73917" lon="2.03702">
        <ele>175.69</ele>
        <time>2013-08-06T15:40:36Z</time>
      </trkpt>
      <trkpt lat="48.73909" lon="2.0371">
        <ele>175.66</ele>
        <time>2013-08-06T15:40:38Z</time>
      </trkpt>
      <trkpt lat="48.73897" lon="2.03714">
        <ele>175.675</ele>
        <time>2013-08-06T15:40:41Z</time>
      </trkpt>
      <trkpt lat="48.73894" lon="2.0371">
        <ele>175.644</ele>
        <time>2013-08-06T15:40:42Z</time>
      </trkpt>
      <trkpt lat="48.73875" lon="2.03688">
        <ele>175.492</ele>
        <time>2013-08-06T15:40:47Z</time>
      </trkpt>
      <trkpt lat="48.73851" lon="2.03677">
        <ele>175.51</ele>
        <time>2013-08-06T15:40:52Z</time>
      </trkpt>
      <trkpt lat="48.73831" lon="2.03686">
        <ele>175.168</ele>
        <time>2013-08-06T15:40:56Z</time>
      </trkpt>
      <trkpt lat="48.73827" lon="2.0369">
        <ele>175.072</ele>
        <time>2013-08-06T15:40:57Z</time>
      </trkpt>
      <trkpt lat="48.73793" lon="2.03729">
        <ele>174.894</ele>
        <time>2013-08-06T15:41:06Z</time>
      </trkpt>
      <trkpt lat="48.73791" lon="2.03752">
        <ele>175.135</ele>
        <time>2013-08-06T15:41:10Z</time>
      </trkpt>
      <trkpt lat="48.73815" lon="2.03808">
        <ele>175.771</ele>
        <time>2013-08-06T15:41:20Z</time>
      </trkpt>
      <trkpt lat="48.73828" lon="2.03839">
        <ele>175.658</ele>
        <time>2013-08-06T15:41:25Z</time>
      </trkpt>
      <trkpt lat="48.73858" lon="2.03903">
        <ele>176.467</ele>
        <time>2013-08-06T15:41:36Z</time>
      </trkpt>
      <trkpt lat="48.73861" lon="2.03908">
        <ele>176.538</ele>
        <time>2013-08-06T15:41:37Z</time>
      </trkpt>
      <trkpt lat="48.7388" lon="2.03943">
        <ele>176.666</ele>
        <time>2013-08-06T15:41:44Z</time>
      </trkpt>
      <trkpt lat="48.73881" lon="2.03946">
        <ele>176.63</ele>
        <time>2013-08-06T15:41:45Z</time>
      </trkpt>
      <trkpt lat="48.73891" lon="2.03961">
        <ele>176.264</ele>
        <time>2013-08-06T15:41:50Z</time>
      </trkpt>
      <trkpt lat="48.73918" lon="2.04014">
        <ele>175.966</ele>
        <time>2013-08-06T15:42:00Z</time>
      </trkpt>
      <trkpt lat="48.73946" lon="2.04082">
        <ele>176.052</ele>
        <time>2013-08-06T15:42:11Z</time>
      </trkpt>
      <trkpt lat="48.73972" lon="2.04145">
        <ele>176.611</ele>
        <time>2013-08-06T15:42:21Z</time>
      </trkpt>
      <trkpt lat="48.73994" lon="2.04205">
        <ele>176.512</ele>
        <time>2013-08-06T15:42:30Z</time>
      </trkpt>
      <trkpt lat="48.74014" lon="2.04241">
        <ele>176.705</ele>
        <time>2013-08-06T15:42:37Z</time>
      </trkpt>
      <trkpt lat="48.74027" lon="2.04262">
        <ele>176.682</ele>
        <time>2013-08-06T15:42:42Z</time>
      </trkpt>
      <trkpt lat="48.74024" lon="2.04279">
        <ele>176.914</ele>
        <time>2013-08-06T15:42:46Z</time>
      </trkpt>
      <trkpt lat="48.74018" lon="2.04284">
        <ele>176.912</ele>
        <time>2013-08-06T15:42:48Z</time>
      </trkpt>
      <trkpt lat="48.73983" lon="2.04304">
        <ele>176.678</ele>
        <time>2013-08-06T15:42:57Z</time>
      </trkpt>
      <trkpt lat="48.73975" lon="2.04307">
        <ele>176.62</ele>
        <time>2013-08-06T15:42:59Z</time>
      </trkpt>
      <trkpt lat="48.73966" lon="2.0431">
        <ele>176.694</ele>
        <time>2013-08-06T15:43:01Z</time>
      </trkpt>
      <trkpt lat="48.73924" lon="2.0432">
        <ele>176.732</ele>
        <time>2013-08-06T15:43:10Z</time>
      </trkpt>
      <trkpt lat="48.73879" lon="2.04327">
        <ele>176.519</ele>
        <time>2013-08-06T15:43:20Z</time>
      </trkpt>
      <trkpt lat="48.73848" lon="2.04332">
        <ele>176.66</ele>
        <time>2013-08-06T15:43:27Z</time>
      </trkpt>
      <trkpt lat="48.73837" lon="2.04338">
        <ele>176.546</ele>
        <time>2013-08-06T15:43:30Z</time>
      </trkpt>
      <trkpt lat="48.7383" lon="2.0436">
        <ele>176.456</ele>
        <time>2013-08-06T15:43:34Z</time>
      </trkpt>
      <trkpt lat="48.73821" lon="2.04436">
        <ele>176.124</ele>
        <time>2013-08-06T15:43:45Z</time>
      </trkpt>
      <trkpt lat="48.73817" lon="2.04465">
        <ele>175.76</ele>
        <time>2013-08-06T15:43:49Z</time>
      </trkpt>
      <trkpt lat="48.73813" lon="2.0451">
        <ele>175.505</ele>
        <time>2013-08-06T15:43:55Z</time>
      </trkpt>
      <trkpt lat="48.73806" lon="2.04574">
        <ele>175.774</ele>
        <time>2013-08-06T15:44:04Z</time>
      </trkpt>
      <trkpt lat="48.73799" lon="2.0464">
        <ele>176.176</ele>
        <time>2013-08-06T15:44:13Z</time>
      </trkpt>
      <trkpt lat="48.73788" lon="2.04717">
        <ele>176.298</ele>
        <time>2013-08-06T15:44:23Z</time>
      </trkpt>
      <trkpt lat="48.7377" lon="2.04797">
        <ele>176.752</ele>
        <time>2013-08-06T15:44:34Z</time>
      </trkpt>
      <trkpt lat="48.73742" lon="2.04876">
        <ele>177.578</ele>
        <time>2013-08-06T15:44:46Z</time>
      </trkpt>
      <trkpt lat="48.73716" lon="2.04949">
        <ele>177.579</ele>
        <time>2013-08-06T15:44:57Z</time>
      </trkpt>
      <trkpt lat="48.73692" lon="2.05023">
        <ele>177.716</ele>
        <time>2013-08-06T15:45:08Z</time>
      </trkpt>
      <trkpt lat="48.73676" lon="2.0509">
        <ele>177.412</ele>
        <time>2013-08-06T15:45:17Z</time>
      </trkpt>
      <trkpt lat="48.73661" lon="2.05175">
        <ele>177.488</ele>
        <time>2013-08-06T15:45:28Z</time>
      </trkpt>
      <trkpt lat="48.73652" lon="2.05262">
        <ele>177.394</ele>
        <time>2013-08-06T15:45:39Z</time>
      </trkpt>
      <trkpt lat="48.7364" lon="2.05306">
        <ele>177.217</ele>
        <time>2013-08-06T15:45:45Z</time>
      </trkpt>
      <trkpt lat="48.73622" lon="2.05374">
        <ele>177.388</ele>
        <time>2013-08-06T15:45:54Z</time>
      </trkpt>
      <trkpt lat="48.73604" lon="2.05453">
        <ele>177.117</ele>
        <time>2013-08-06T15:46:04Z</time>
      </trkpt>
      <trkpt lat="48.73591" lon="2.05529">
        <ele>176.554</ele>
        <time>2013-08-06T15:46:13Z</time>
      </trkpt>
      <trkpt lat="48.73581" lon="2.05603">
        <ele>176.652</ele>
        <time>2013-08-06T15:46:22Z</time>
      </trkpt>
      <trkpt lat="48.73571" lon="2.05707">
        <ele>176.076</ele>
        <time>2013-08-06T15:46:34Z</time>
      </trkpt>
      <trkpt lat="48.73563" lon="2.05805">
        <ele>175.648</ele>
        <time>2013-08-06T15:46:45Z</time>
      </trkpt>
      <trkpt lat="48.73555" lon="2.05902">
        <ele>175.045</ele>
        <time>2013-08-06T15:46:56Z</time>
      </trkpt>
      <trkpt lat="48.73546" lon="2.0599">
        <ele>174.397</ele>
        <time>2013-08-06T15:47:06Z</time>
      </trkpt>
      <trkpt lat="48.73536" lon="2.06058">
        <ele>174.104</ele>
        <time>2013-08-06T15:47:14Z</time>
      </trkpt>
      <trkpt lat="48.73521" lon="2.06152">
        <ele>174.474</ele>
        <time>2013-08-06T15:47:25Z</time>
      </trkpt>
      <trkpt lat="48.73507" lon="2.06239">
        <ele>174.533</ele>
        <time>2013-08-06T15:47:35Z</time>
      </trkpt>
      <trkpt lat="48.73499" lon="2.06328">
        <ele>174.658</ele>
        <time>2013-08-06T15:47:45Z</time>
      </trkpt>
      <trkpt lat="48.73497" lon="2.06415">
        <ele>174.112</ele>
        <time>2013-08-06T15:47:55Z</time>
      </trkpt>
      <trkpt lat="48.73496" lon="2.06476">
        <ele>173.929</ele>
        <time>2013-08-06T15:48:02Z</time>
      </trkpt>
      <trkpt lat="48.73493" lon="2.06545">
        <ele>173.638</ele>
        <time>2013-08-06T15:48:10Z</time>
      </trkpt>
      <trkpt lat="48.73491" lon="2.06571">
        <ele>173.55</ele>
        <time>2013-08-06T15:48:13Z</time>
      </trkpt>
      <trkpt lat="48.73473" lon="2.06655">
        <ele>173.418</ele>
        <time>2013-08-06T15:48:23Z</time>
      </trkpt>
      <trkpt lat="48.73468" lon="2.06669">
        <ele>173.493</ele>
        <time>2013-08-06T15:48:25Z</time>
      </trkpt>
      <trkpt lat="48.73452" lon="2.06723">
        <ele>173.487</ele>
        <time>2013-08-06T15:48:33Z</time>
      </trkpt>
      <trkpt lat="48.73443" lon="2.06758">
        <ele>173.291</ele>
        <time>2013-08-06T15:48:39Z</time>
      </trkpt>
      <trkpt lat="48.73436" lon="2.06793">
        <ele>172.773</ele>
        <time>2013-08-06T15:48:45Z</time>
      </trkpt>
      <trkpt lat="48.73434" lon="2.06802">
        <ele>172.676</ele>
        <time>2013-08-06T15:48:48Z</time>
      </trkpt>
      <trkpt lat="48.73436" lon="2.06803">
        <ele>172.789</ele>
        <time>2013-08-06T15:49:13Z</time>
      </trkpt>
      <trkpt lat="48.73425" lon="2.06799">
        <ele>172.877</ele>
        <time>2013-08-06T15:49:19Z</time>
      </trkpt>
      <trkpt lat="48.73407" lon="2.0679">
        <ele>173.165</ele>
        <time>2013-08-06T15:49:25Z</time>
      </trkpt>
      <trkpt lat="48.73393" lon="2.06783">
        <ele>173.297</ele>
        <time>2013-08-06T15:49:30Z</time>
      </trkpt>
      <trkpt lat="48.7339" lon="2.06783">
        <ele>173.346</ele>
        <time>2013-08-06T15:49:33Z</time>
      </trkpt>
      <trkpt lat="48.7339" lon="2.06783">
        <ele>173.491</ele>
        <time>2013-08-06T15:49:46Z</time>
      </trkpt>
      <trkpt lat="48.73389" lon="2.06783">
        <ele>173.528</ele>
        <time>2013-08-06T15:49:50Z</time>
      </trkpt>
      <trkpt lat="48.73388" lon="2.06786">
        <ele>173.51</ele>
        <time>2013-08-06T15:49:54Z</time>
      </trkpt>
      <trkpt lat="48.73378" lon="2.0679">
        <ele>173.628</ele>
        <time>2013-08-06T15:49:59Z</time>
      </trkpt>
      <trkpt lat="48.73374" lon="2.0679">
        <ele>173.591</ele>
        <time>2013-08-06T15:50:00Z</time>
      </trkpt>
      <trkpt lat="48.73357" lon="2.06793">
        <ele>173.704</ele>
        <time>2013-08-06T15:50:04Z</time>
      </trkpt>
      <trkpt lat="48.73335" lon="2.06797">
        <ele>173.923</ele>
        <time>2013-08-06T15:50:09Z</time>
      </trkpt>
      <trkpt lat="48.733" lon="2.06804">
        <ele>174.032</ele>
        <time>2013-08-06T15:50:17Z</time>
      </trkpt>
      <trkpt lat="48.73292" lon="2.06806">
        <ele>174.159</ele>
        <time>2013-08-06T15:50:19Z</time>
      </trkpt>
      <trkpt lat="48.73256" lon="2.0681">
        <ele>174.279</ele>
        <time>2013-08-06T15:50:27Z</time>
      </trkpt>
      <trkpt lat="48.7322" lon="2.06802">
        <ele>174.082</ele>
        <time>2013-08-06T15:50:35Z</time>
      </trkpt>
      <trkpt lat="48.73178" lon="2.06777">
        <ele>174.403</ele>
        <time>2013-08-06T15:50:45Z</time>
      </trkpt>
      <trkpt lat="48.73138" lon="2.0675">
        <ele>174.186</ele>
        <time>2013-08-06T15:50:54Z</time>
      </trkpt>
      <trkpt lat="48.73095" lon="2.06718">
        <ele>174.054</ele>
        <time>2013-08-06T15:51:04Z</time>
      </trkpt>
      <trkpt lat="48.73044" lon="2.0668">
        <ele>173.542</ele>
        <time>2013-08-06T15:51:16Z</time>
      </trkpt>
      <trkpt lat="48.73004" lon="2.06652">
        <ele>173.23</ele>
        <time>2013-08-06T15:51:25Z</time>
      </trkpt>
      <trkpt lat="48.72969" lon="2.06619">
        <ele>172.414</ele>
        <time>2013-08-06T15:51:33Z</time>
      </trkpt>
      <trkpt lat="48.72928" lon="2.06575">
        <ele>171.911</ele>
        <time>2013-08-06T15:51:43Z</time>
      </trkpt>
      <trkpt lat="48.729" lon="2.06546">
        <ele>171.265</ele>
        <time>2013-08-06T15:51:50Z</time>
      </trkpt>
      <trkpt lat="48.72875" lon="2.06522">
        <ele>170.95</ele>
        <time>2013-08-06T15:51:56Z</time>
      </trkpt>
      <trkpt lat="48.72852" lon="2.06518">
        <ele>170.414</ele>
        <time>2013-08-06T15:52:01Z</time>
      </trkpt>
      <trkpt lat="48.72843" lon="2.06526">
        <ele>170.127</ele>
        <time>2013-08-06T15:52:03Z</time>
      </trkpt>
      <trkpt lat="48.7281" lon="2.06577">
        <ele>168.59</ele>
        <time>2013-08-06T15:52:11Z</time>
      </trkpt>
      <trkpt lat="48.72778" lon="2.06628">
        <ele>168.153</ele>
        <time>2013-08-06T15:52:19Z</time>
      </trkpt>
      <trkpt lat="48.72755" lon="2.0667">
        <ele>168.416</ele>
        <time>2013-08-06T15:52:26Z</time>
      </trkpt>
      <trkpt lat="48.72734" lon="2.06722">
        <ele>168.976</ele>
        <time>2013-08-06T15:52:34Z</time>
      </trkpt>
      <trkpt lat="48.72718" lon="2.06763">
        <ele>169.268</ele>
        <time>2013-08-06T15:52:40Z</time>
      </trkpt>
      <trkpt lat="48.72697" lon="2.06814">
        <ele>169.306</ele>
        <time>2013-08-06T15:52:47Z</time>
      </trkpt>
      <trkpt lat="48.72667" lon="2.0687">
        <ele>169.002</ele>
        <time>2013-08-06T15:52:55Z</time>
      </trkpt>
      <trkpt lat="48.72638" lon="2.06918">
        <ele>168.43</ele>
        <time>2013-08-06T15:53:02Z</time>
      </trkpt>
      <trkpt lat="48.72604" lon="2.06972">
        <ele>167.136</ele>
        <time>2013-08-06T15:53:10Z</time>
      </trkpt>
      <trkpt lat="48.72576" lon="2.07012">
        <ele>166.231</ele>
        <time>2013-08-06T15:53:16Z</time>
      </trkpt>
      <trkpt lat="48.7255" lon="2.07045">
        <ele>164.771</ele>
        <time>2013-08-06T15:53:21Z</time>
      </trkpt>
      <trkpt lat="48.72539" lon="2.0706">
        <ele>163.982</ele>
        <time>2013-08-06T15:53:24Z</time>
      </trkpt>
      <trkpt lat="48.72521" lon="2.07056">
        <ele>162.903</ele>
        <time>2013-08-06T15:53:28Z</time>
      </trkpt>
      <trkpt lat="48.72507" lon="2.07062">
        <ele>162.522</ele>
        <time>2013-08-06T15:53:31Z</time>
      </trkpt>
      <trkpt lat="48.725" lon="2.07085">
        <ele>162.187</ele>
        <time>2013-08-06T15:53:34Z</time>
      </trkpt>
      <trkpt lat="48.72481" lon="2.07139">
        <ele>161.675</ele>
        <time>2013-08-06T15:53:41Z</time>
      </trkpt>
      <trkpt lat="48.72476" lon="2.07152">
        <ele>161.591</ele>
        <time>2013-08-06T15:53:43Z</time>
      </trkpt>
      <trkpt lat="48.72457" lon="2.07196">
        <ele>161.862</ele>
        <time>2013-08-06T15:53:49Z</time>
      </trkpt>
      <trkpt lat="48.72454" lon="2.07203">
        <ele>161.919</ele>
        <time>2013-08-06T15:53:50Z</time>
      </trkpt>
      <trkpt lat="48.72446" lon="2.07216">
        <ele>162.002</ele>
        <time>2013-08-06T15:53:52Z</time>
      </trkpt>
      <trkpt lat="48.72434" lon="2.07233">
        <ele>161.726</ele>
        <time>2013-08-06T15:53:55Z</time>
      </trkpt>
      <trkpt lat="48.72411" lon="2.07271">
        <ele>161.048</ele>
        <time>2013-08-06T15:54:01Z</time>
      </trkpt>
      <trkpt lat="48.724" lon="2.07294">
        <ele>161.033</ele>
        <time>2013-08-06T15:54:05Z</time>
      </trkpt>
      <trkpt lat="48.72392" lon="2.07303">
        <ele>161.322</ele>
        <time>2013-08-06T15:54:09Z</time>
      </trkpt>
      <trkpt lat="48.72389" lon="2.073">
        <ele>161.49</ele>
        <time>2013-08-06T15:54:10Z</time>
      </trkpt>
      <trkpt lat="48.72384" lon="2.07293">
        <ele>161.729</ele>
        <time>2013-08-06T15:54:12Z</time>
      </trkpt>
      <trkpt lat="48.72369" lon="2.07279">
        <ele>161.905</ele>
        <time>2013-08-06T15:54:16Z</time>
      </trkpt>
      <trkpt lat="48.72351" lon="2.07262">
        <ele>161.787</ele>
        <time>2013-08-06T15:54:20Z</time>
      </trkpt>
      <trkpt lat="48.72334" lon="2.07246">
        <ele>161.941</ele>
        <time>2013-08-06T15:54:24Z</time>
      </trkpt>
      <trkpt lat="48.7232" lon="2.07237">
        <ele>162.071</ele>
        <time>2013-08-06T15:54:27Z</time>
      </trkpt>
      <trkpt lat="48.72283" lon="2.07208">
        <ele>162.483</ele>
        <time>2013-08-06T15:54:36Z</time>
      </trkpt>
      <trkpt lat="48.72266" lon="2.07198">
        <ele>162.77</ele>
        <time>2013-08-06T15:54:40Z</time>
      </trkpt>
      <trkpt lat="48.72255" lon="2.07187">
        <ele>163.127</ele>
        <time>2013-08-06T15:54:43Z</time>
      </trkpt>
      <trkpt lat="48.72244" lon="2.07177">
        <ele>163.443</ele>
        <time>2013-08-06T15:54:46Z</time>
      </trkpt>
      <trkpt lat="48.72219" lon="2.0717">
        <ele>164.087</ele>
        <time>2013-08-06T15:54:52Z</time>
      </trkpt>
      <trkpt lat="48.7221" lon="2.0717">
        <ele>164.297</ele>
        <time>2013-08-06T15:54:54Z</time>
      </trkpt>
      <trkpt lat="48.72174" lon="2.07164">
        <ele>164.766</ele>
        <time>2013-08-06T15:55:02Z</time>
      </trkpt>
      <trkpt lat="48.72143" lon="2.07152">
        <ele>165.019</ele>
        <time>2013-08-06T15:55:09Z</time>
      </trkpt>
      <trkpt lat="48.72138" lon="2.0715">
        <ele>165.003</ele>
        <time>2013-08-06T15:55:10Z</time>
      </trkpt>
      <trkpt lat="48.72111" lon="2.07142">
        <ele>165.003</ele>
        <time>2013-08-06T15:55:16Z</time>
      </trkpt>
      <trkpt lat="48.72091" lon="2.07141">
        <ele>165.151</ele>
        <time>2013-08-06T15:55:20Z</time>
      </trkpt>
      <trkpt lat="48.72081" lon="2.07143">
        <ele>165.236</ele>
        <time>2013-08-06T15:55:22Z</time>
      </trkpt>
      <trkpt lat="48.72051" lon="2.07158">
        <ele>165.845</ele>
        <time>2013-08-06T15:55:29Z</time>
      </trkpt>
      <trkpt lat="48.72034" lon="2.07169">
        <ele>166.011</ele>
        <time>2013-08-06T15:55:35Z</time>
      </trkpt>
      <trkpt lat="48.72016" lon="2.07178">
        <ele>165.874</ele>
        <time>2013-08-06T15:55:41Z</time>
      </trkpt>
      <trkpt lat="48.71983" lon="2.07202">
        <ele>166.002</ele>
        <time>2013-08-06T15:55:50Z</time>
      </trkpt>
      <trkpt lat="48.7198" lon="2.07205">
        <ele>166.083</ele>
        <time>2013-08-06T15:55:51Z</time>
      </trkpt>
      <trkpt lat="48.71961" lon="2.07219">
        <ele>166.283</ele>
        <time>2013-08-06T15:55:56Z</time>
      </trkpt>
      <trkpt lat="48.71918" lon="2.07236">
        <ele>166.403</ele>
        <time>2013-08-06T15:56:06Z</time>
      </trkpt>
      <trkpt lat="48.71881" lon="2.07251">
        <ele>165.548</ele>
        <time>2013-08-06T15:56:13Z</time>
      </trkpt>
      <trkpt lat="48.71859" lon="2.07259">
        <ele>164.909</ele>
        <time>2013-08-06T15:56:17Z</time>
      </trkpt>
      <trkpt lat="48.71822" lon="2.07273">
        <ele>163.584</ele>
        <time>2013-08-06T15:56:23Z</time>
      </trkpt>
      <trkpt lat="48.71797" lon="2.07271">
        <ele>163.058</ele>
        <time>2013-08-06T15:56:27Z</time>
      </trkpt>
      <trkpt lat="48.71786" lon="2.07264">
        <ele>162.931</ele>
        <time>2013-08-06T15:56:29Z</time>
      </trkpt>
      <trkpt lat="48.71771" lon="2.07251">
        <ele>162.825</ele>
        <time>2013-08-06T15:56:32Z</time>
      </trkpt>
      <trkpt lat="48.71739" lon="2.07237">
        <ele>162.814</ele>
        <time>2013-08-06T15:56:38Z</time>
      </trkpt>
      <trkpt lat="48.71735" lon="2.07238">
        <ele>162.956</ele>
        <time>2013-08-06T15:56:39Z</time>
      </trkpt>
      <trkpt lat="48.71696" lon="2.07251">
        <ele>164.219</ele>
        <time>2013-08-06T15:56:47Z</time>
      </trkpt>
      <trkpt lat="48.71671" lon="2.07261">
        <ele>164.784</ele>
        <time>2013-08-06T15:56:52Z</time>
      </trkpt>
      <trkpt lat="48.71636" lon="2.07278">
        <ele>164.686</ele>
        <time>2013-08-06T15:56:59Z</time>
      </trkpt>
      <trkpt lat="48.7162" lon="2.07284">
        <ele>164.649</ele>
        <time>2013-08-06T15:57:02Z</time>
      </trkpt>
      <trkpt lat="48.71581" lon="2.07288">
        <ele>164.222</ele>
        <time>2013-08-06T15:57:09Z</time>
      </trkpt>
      <trkpt lat="48.71553" lon="2.07284">
        <ele>164.073</ele>
        <time>2013-08-06T15:57:14Z</time>
      </trkpt>
      <trkpt lat="48.71539" lon="2.07282">
        <ele>164.094</ele>
        <time>2013-08-06T15:57:17Z</time>
      </trkpt>
      <trkpt lat="48.7151" lon="2.07289">
        <ele>164.518</ele>
        <time>2013-08-06T15:57:23Z</time>
      </trkpt>
      <trkpt lat="48.71463" lon="2.07301">
        <ele>165.254</ele>
        <time>2013-08-06T15:57:33Z</time>
      </trkpt>
      <trkpt lat="48.71428" lon="2.07307">
        <ele>165.072</ele>
        <time>2013-08-06T15:57:41Z</time>
      </trkpt>
      <trkpt lat="48.71404" lon="2.07313">
        <ele>164.705</ele>
        <time>2013-08-06T15:57:47Z</time>
      </trkpt>
      <trkpt lat="48.71382" lon="2.07327">
        <ele>164.707</ele>
        <time>2013-08-06T15:57:54Z</time>
      </trkpt>
      <trkpt lat="48.71367" lon="2.07323">
        <ele>164.485</ele>
        <time>2013-08-06T15:57:59Z</time>
      </trkpt>
      <trkpt lat="48.71359" lon="2.07323">
        <ele>164.415</ele>
        <time>2013-08-06T15:58:01Z</time>
      </trkpt>
      <trkpt lat="48.7133" lon="2.07329">
        <ele>164.025</ele>
        <time>2013-08-06T15:58:08Z</time>
      </trkpt>
      <trkpt lat="48.71326" lon="2.07329">
        <ele>164.014</ele>
        <time>2013-08-06T15:58:09Z</time>
      </trkpt>
      <trkpt lat="48.71303" lon="2.07334">
        <ele>163.687</ele>
        <time>2013-08-06T15:58:15Z</time>
      </trkpt>
      <trkpt lat="48.71285" lon="2.07338">
        <ele>163.555</ele>
        <time>2013-08-06T15:58:20Z</time>
      </trkpt>
      <trkpt lat="48.71269" lon="2.07342">
        <ele>163.584</ele>
        <time>2013-08-06T15:58:24Z</time>
      </trkpt>
      <trkpt lat="48.7126" lon="2.07343">
        <ele>163.599</ele>
        <time>2013-08-06T15:58:26Z</time>
      </trkpt>
      <trkpt lat="48.71228" lon="2.07342">
        <ele>163.316</ele>
        <time>2013-08-06T15:58:33Z</time>
      </trkpt>
      <trkpt lat="48.71204" lon="2.07342">
        <ele>163.152</ele>
        <time>2013-08-06T15:58:38Z</time>
      </trkpt>
      <trkpt lat="48.71181" lon="2.0733">
        <ele>163.066</ele>
        <time>2013-08-06T15:58:43Z</time>
      </trkpt>
      <trkpt lat="48.7116" lon="2.07326">
        <ele>162.769</ele>
        <time>2013-08-06T15:58:47Z</time>
      </trkpt>
      <trkpt lat="48.71151" lon="2.07327">
        <ele>162.643</ele>
        <time>2013-08-06T15:58:49Z</time>
      </trkpt>
      <trkpt lat="48.7112" lon="2.07329">
        <ele>162.377</ele>
        <time>2013-08-06T15:58:55Z</time>
      </trkpt>
      <trkpt lat="48.71078" lon="2.07332">
        <ele>161.678</ele>
        <time>2013-08-06T15:59:03Z</time>
      </trkpt>
      <trkpt lat="48.71073" lon="2.07333">
        <ele>161.588</ele>
        <time>2013-08-06T15:59:04Z</time>
      </trkpt>
      <trkpt lat="48.71045" lon="2.07338">
        <ele>161.402</ele>
        <time>2013-08-06T15:59:09Z</time>
      </trkpt>
      <trkpt lat="48.71015" lon="2.07354">
        <ele>161.152</ele>
        <time>2013-08-06T15:59:15Z</time>
      </trkpt>
      <trkpt lat="48.71" lon="2.07362">
        <ele>161.285</ele>
        <time>2013-08-06T15:59:18Z</time>
      </trkpt>
      <trkpt lat="48.70985" lon="2.07368">
        <ele>161.341</ele>
        <time>2013-08-06T15:59:21Z</time>
      </trkpt>
      <trkpt lat="48.70974" lon="2.07374">
        <ele>161.391</ele>
        <time>2013-08-06T15:59:23Z</time>
      </trkpt>
      <trkpt lat="48.70953" lon="2.07384">
        <ele>161.365</ele>
        <time>2013-08-06T15:59:27Z</time>
      </trkpt>
      <trkpt lat="48.70941" lon="2.07386">
        <ele>161.297</ele>
        <time>2013-08-06T15:59:29Z</time>
      </trkpt>
      <trkpt lat="48.70914" lon="2.07399">
        <ele>161.121</ele>
        <time>2013-08-06T15:59:34Z</time>
      </trkpt>
      <trkpt lat="48.70902" lon="2.07421">
        <ele>161.281</ele>
        <time>2013-08-06T15:59:38Z</time>
      </trkpt>
      <trkpt lat="48.70907" lon="2.07445">
        <ele>161.251</ele>
        <time>2013-08-06T15:59:41Z</time>
      </trkpt>
      <trkpt lat="48.70913" lon="2.07456">
        <ele>161.181</ele>
        <time>2013-08-06T15:59:43Z</time>
      </trkpt>
      <trkpt lat="48.70937" lon="2.07492">
        <ele>160.5</ele>
        <time>2013-08-06T15:59:49Z</time>
      </trkpt>
      <trkpt lat="48.70951" lon="2.07518">
        <ele>160.27</ele>
        <time>2013-08-06T15:59:53Z</time>
      </trkpt>
      <trkpt lat="48.70969" lon="2.07556">
        <ele>159.678</ele>
        <time>2013-08-06T15:59:58Z</time>
      </trkpt>
      <trkpt lat="48.70982" lon="2.07599">
        <ele>158.937</ele>
        <time>2013-08-06T16:00:03Z</time>
      </trkpt>
      <trkpt lat="48.7099" lon="2.07615">
        <ele>158.791</ele>
        <time>2013-08-06T16:00:05Z</time>
      </trkpt>
      <trkpt lat="48.71003" lon="2.07653">
        <ele>159.324</ele>
        <time>2013-08-06T16:00:10Z</time>
      </trkpt>
      <trkpt lat="48.71022" lon="2.07707">
        <ele>159.699</ele>
        <time>2013-08-06T16:00:17Z</time>
      </trkpt>
      <trkpt lat="48.71027" lon="2.07721">
        <ele>159.831</ele>
        <time>2013-08-06T16:00:19Z</time>
      </trkpt>
      <trkpt lat="48.71036" lon="2.0775">
        <ele>160.052</ele>
        <time>2013-08-06T16:00:23Z</time>
      </trkpt>
      <trkpt lat="48.71056" lon="2.07809">
        <ele>160.247</ele>
        <time>2013-08-06T16:00:31Z</time>
      </trkpt>
      <trkpt lat="48.71058" lon="2.07816">
        <ele>160.338</ele>
        <time>2013-08-06T16:00:32Z</time>
      </trkpt>
      <trkpt lat="48.71062" lon="2.0783">
        <ele>160.446</ele>
        <time>2013-08-06T16:00:34Z</time>
      </trkpt>
      <trkpt lat="48.71074" lon="2.07862">
        <ele>160.727</ele>
        <time>2013-08-06T16:00:39Z</time>
      </trkpt>
      <trkpt lat="48.71095" lon="2.07875">
        <ele>161.206</ele>
        <time>2013-08-06T16:00:44Z</time>
      </trkpt>
      <trkpt lat="48.71118" lon="2.07883">
        <ele>161.518</ele>
        <time>2013-08-06T16:00:49Z</time>
      </trkpt>
      <trkpt lat="48.71148" lon="2.07871">
        <ele>162.377</ele>
        <time>2013-08-06T16:00:56Z</time>
      </trkpt>
      <trkpt lat="48.71172" lon="2.07871">
        <ele>162.921</ele>
        <time>2013-08-06T16:01:01Z</time>
      </trkpt>
      <trkpt lat="48.7118" lon="2.07876">
        <ele>163.146</ele>
        <time>2013-08-06T16:01:03Z</time>
      </trkpt>
      <trkpt lat="48.71211" lon="2.07901">
        <ele>163.572</ele>
        <time>2013-08-06T16:01:10Z</time>
      </trkpt>
      <trkpt lat="48.71215" lon="2.07904">
        <ele>163.537</ele>
        <time>2013-08-06T16:01:11Z</time>
      </trkpt>
      <trkpt lat="48.71256" lon="2.07917">
        <ele>163.501</ele>
        <time>2013-08-06T16:01:19Z</time>
      </trkpt>
      <trkpt lat="48.71287" lon="2.07924">
        <ele>163.353</ele>
        <time>2013-08-06T16:01:25Z</time>
      </trkpt>
      <trkpt lat="48.7133" lon="2.07929">
        <ele>163.284</ele>
        <time>2013-08-06T16:01:33Z</time>
      </trkpt>
      <trkpt lat="48.71367" lon="2.07929">
        <ele>163.091</ele>
        <time>2013-08-06T16:01:40Z</time>
      </trkpt>
      <trkpt lat="48.7138" lon="2.07932">
        <ele>162.919</ele>
        <time>2013-08-06T16:01:43Z</time>
      </trkpt>
      <trkpt lat="48.71402" lon="2.07936">
        <ele>162.878</ele>
        <time>2013-08-06T16:01:48Z</time>
      </trkpt>
      <trkpt lat="48.71426" lon="2.0794">
        <ele>163.045</ele>
        <time>2013-08-06T16:01:53Z</time>
      </trkpt>
      <trkpt lat="48.71462" lon="2.0795">
        <ele>163.248</ele>
        <time>2013-08-06T16:02:01Z</time>
      </trkpt>
      <trkpt lat="48.71486" lon="2.07955">
        <ele>163.47</ele>
        <time>2013-08-06T16:02:07Z</time>
      </trkpt>
      <trkpt lat="48.7149" lon="2.07978">
        <ele>163.366</ele>
        <time>2013-08-06T16:02:11Z</time>
      </trkpt>
      <trkpt lat="48.71483" lon="2.08045">
        <ele>162.856</ele>
        <time>2013-08-06T16:02:20Z</time>
      </trkpt>
      <trkpt lat="48.71483" lon="2.08052">
        <ele>162.799</ele>
        <time>2013-08-06T16:02:21Z</time>
      </trkpt>
      <trkpt lat="48.71483" lon="2.08106">
        <ele>162.614</ele>
        <time>2013-08-06T16:02:28Z</time>
      </trkpt>
      <trkpt lat="48.71473" lon="2.08196">
        <ele>162.214</ele>
        <time>2013-08-06T16:02:39Z</time>
      </trkpt>
      <trkpt lat="48.71469" lon="2.08238">
        <ele>162.108</ele>
        <time>2013-08-06T16:02:44Z</time>
      </trkpt>
      <trkpt lat="48.71477" lon="2.08264">
        <ele>161.952</ele>
        <time>2013-08-06T16:02:48Z</time>
      </trkpt>
      <trkpt lat="48.71487" lon="2.08269">
        <ele>161.884</ele>
        <time>2013-08-06T16:02:50Z</time>
      </trkpt>
      <trkpt lat="48.71496" lon="2.08273">
        <ele>161.93</ele>
        <time>2013-08-06T16:02:52Z</time>
      </trkpt>
      <trkpt lat="48.71505" lon="2.08292">
        <ele>161.892</ele>
        <time>2013-08-06T16:02:56Z</time>
      </trkpt>
      <trkpt lat="48.71504" lon="2.08299">
        <ele>161.845</ele>
        <time>2013-08-06T16:02:57Z</time>
      </trkpt>
      <trkpt lat="48.71489" lon="2.08367">
        <ele>161.527</ele>
        <time>2013-08-06T16:03:06Z</time>
      </trkpt>
      <trkpt lat="48.71488" lon="2.08373">
        <ele>161.572</ele>
        <time>2013-08-06T16:03:07Z</time>
      </trkpt>
      <trkpt lat="48.71491" lon="2.08397">
        <ele>161.469</ele>
        <time>2013-08-06T16:03:11Z</time>
      </trkpt>
      <trkpt lat="48.71499" lon="2.08402">
        <ele>161.461</ele>
        <time>2013-08-06T16:03:13Z</time>
      </trkpt>
      <trkpt lat="48.7154" lon="2.0842">
        <ele>162.001</ele>
        <time>2013-08-06T16:03:22Z</time>
      </trkpt>
      <trkpt lat="48.71553" lon="2.08425">
        <ele>162.228</ele>
        <time>2013-08-06T16:03:25Z</time>
      </trkpt>
      <trkpt lat="48.71562" lon="2.08431">
        <ele>162.306</ele>
        <time>2013-08-06T16:03:27Z</time>
      </trkpt>
      <trkpt lat="48.71602" lon="2.08449">
        <ele>162.623</ele>
        <time>2013-08-06T16:03:36Z</time>
      </trkpt>
      <trkpt lat="48.71634" lon="2.08464">
        <ele>162.936</ele>
        <time>2013-08-06T16:03:43Z</time>
      </trkpt>
      <trkpt lat="48.71669" lon="2.08479">
        <ele>162.752</ele>
        <time>2013-08-06T16:03:50Z</time>
      </trkpt>
      <trkpt lat="48.71703" lon="2.08496">
        <ele>163.048</ele>
        <time>2013-08-06T16:03:57Z</time>
      </trkpt>
      <trkpt lat="48.71743" lon="2.08514">
        <ele>162.882</ele>
        <time>2013-08-06T16:04:05Z</time>
      </trkpt>
      <trkpt lat="48.71786" lon="2.08532">
        <ele>163.41</ele>
        <time>2013-08-06T16:04:14Z</time>
      </trkpt>
      <trkpt lat="48.71808" lon="2.08544">
        <ele>163.276</ele>
        <time>2013-08-06T16:04:19Z</time>
      </trkpt>
      <trkpt lat="48.71845" lon="2.08559">
        <ele>162.908</ele>
        <time>2013-08-06T16:04:28Z</time>
      </trkpt>
      <trkpt lat="48.71866" lon="2.0857">
        <ele>162.883</ele>
        <time>2013-08-06T16:04:34Z</time>
      </trkpt>
      <trkpt lat="48.71882" lon="2.08577">
        <ele>162.907</ele>
        <time>2013-08-06T16:04:39Z</time>
      </trkpt>
      <trkpt lat="48.71886" lon="2.08567">
        <ele>162.993</ele>
        <time>2013-08-06T16:04:43Z</time>
      </trkpt>
      <trkpt lat="48.71892" lon="2.08543">
        <ele>163.254</ele>
        <time>2013-08-06T16:04:49Z</time>
      </trkpt>
      <trkpt lat="48.71895" lon="2.08534">
        <ele>163.326</ele>
        <time>2013-08-06T16:04:52Z</time>
      </trkpt>
      <trkpt lat="48.71892" lon="2.08529">
        <ele>163.361</ele>
        <time>2013-08-06T16:04:56Z</time>
      </trkpt>
      <trkpt lat="48.71891" lon="2.08533">
        <ele>163.425</ele>
        <time>2013-08-06T16:04:58Z</time>
      </trkpt>
      <trkpt lat="48.71889" lon="2.0855">
        <ele>163.472</ele>
        <time>2013-08-06T16:05:03Z</time>
      </trkpt>
      <trkpt lat="48.71883" lon="2.08573">
        <ele>163.325</ele>
        <time>2013-08-06T16:05:08Z</time>
      </trkpt>
      <trkpt lat="48.71895" lon="2.08587">
        <ele>163.11</ele>
        <time>2013-08-06T16:05:13Z</time>
      </trkpt>
      <trkpt lat="48.71927" lon="2.08603">
        <ele>163.111</ele>
        <time>2013-08-06T16:05:21Z</time>
      </trkpt>
      <trkpt lat="48.71948" lon="2.08611">
        <ele>162.948</ele>
        <time>2013-08-06T16:05:26Z</time>
      </trkpt>
      <trkpt lat="48.71977" lon="2.08626">
        <ele>162.839</ele>
        <time>2013-08-06T16:05:33Z</time>
      </trkpt>
      <trkpt lat="48.71982" lon="2.08629">
        <ele>162.86</ele>
        <time>2013-08-06T16:05:34Z</time>
      </trkpt>
      <trkpt lat="48.71992" lon="2.08646">
        <ele>162.903</ele>
        <time>2013-08-06T16:05:38Z</time>
      </trkpt>
      <trkpt lat="48.7199" lon="2.08665">
        <ele>162.842</ele>
        <time>2013-08-06T16:05:41Z</time>
      </trkpt>
      <trkpt lat="48.71976" lon="2.08731">
        <ele>162.813</ele>
        <time>2013-08-06T16:05:51Z</time>
      </trkpt>
      <trkpt lat="48.71974" lon="2.08744">
        <ele>162.884</ele>
        <time>2013-08-06T16:05:53Z</time>
      </trkpt>
      <trkpt lat="48.71977" lon="2.08764">
        <ele>163.157</ele>
        <time>2013-08-06T16:05:57Z</time>
      </trkpt>
      <trkpt lat="48.71987" lon="2.08766">
        <ele>163.512</ele>
        <time>2013-08-06T16:06:01Z</time>
      </trkpt>
      <trkpt lat="48.72" lon="2.08763">
        <ele>163.623</ele>
        <time>2013-08-06T16:06:05Z</time>
      </trkpt>
      <trkpt lat="48.72007" lon="2.08766">
        <ele>163.508</ele>
        <time>2013-08-06T16:06:07Z</time>
      </trkpt>
      <trkpt lat="48.72014" lon="2.08783">
        <ele>163.618</ele>
        <time>2013-08-06T16:06:11Z</time>
      </trkpt>
      <trkpt lat="48.72016" lon="2.08791">
        <ele>163.841</ele>
        <time>2013-08-06T16:06:13Z</time>
      </trkpt>
      <trkpt lat="48.72019" lon="2.08798">
        <ele>163.932</ele>
        <time>2013-08-06T16:06:15Z</time>
      </trkpt>
      <trkpt lat="48.72015" lon="2.08816">
        <ele>163.949</ele>
        <time>2013-08-06T16:06:20Z</time>
      </trkpt>
      <trkpt lat="48.72009" lon="2.08829">
        <ele>163.767</ele>
        <time>2013-08-06T16:06:23Z</time>
      </trkpt>
      <trkpt lat="48.71996" lon="2.08847">
        <ele>163.725</ele>
        <time>2013-08-06T16:06:28Z</time>
      </trkpt>
      <trkpt lat="48.71991" lon="2.08866">
        <ele>163.685</ele>
        <time>2013-08-06T16:06:32Z</time>
      </trkpt>
      <trkpt lat="48.71982" lon="2.08899">
        <ele>163.514</ele>
        <time>2013-08-06T16:06:37Z</time>
      </trkpt>
      <trkpt lat="48.71972" lon="2.08944">
        <ele>163.226</ele>
        <time>2013-08-06T16:06:43Z</time>
      </trkpt>
      <trkpt lat="48.71959" lon="2.09006">
        <ele>163.207</ele>
        <time>2013-08-06T16:06:51Z</time>
      </trkpt>
      <trkpt lat="48.71943" lon="2.09067">
        <ele>162.828</ele>
        <time>2013-08-06T16:06:59Z</time>
      </trkpt>
      <trkpt lat="48.7192" lon="2.09136">
        <ele>162.855</ele>
        <time>2013-08-06T16:07:09Z</time>
      </trkpt>
      <trkpt lat="48.71907" lon="2.09175">
        <ele>162.46</ele>
        <time>2013-08-06T16:07:16Z</time>
      </trkpt>
      <trkpt lat="48.71906" lon="2.0918">
        <ele>162.352</ele>
        <time>2013-08-06T16:07:17Z</time>
      </trkpt>
      <trkpt lat="48.71913" lon="2.09197">
        <ele>162.056</ele>
        <time>2013-08-06T16:07:21Z</time>
      </trkpt>
      <trkpt lat="48.7192" lon="2.09196">
        <ele>162.047</ele>
        <time>2013-08-06T16:07:23Z</time>
      </trkpt>
      <trkpt lat="48.71928" lon="2.09202">
        <ele>162.226</ele>
        <time>2013-08-06T16:07:28Z</time>
      </trkpt>
      <trkpt lat="48.71926" lon="2.09214">
        <ele>162.438</ele>
        <time>2013-08-06T16:07:32Z</time>
      </trkpt>
      <trkpt lat="48.71926" lon="2.09229">
        <ele>162.806</ele>
        <time>2013-08-06T16:07:35Z</time>
      </trkpt>
      <trkpt lat="48.71933" lon="2.0926">
        <ele>163.107</ele>
        <time>2013-08-06T16:07:40Z</time>
      </trkpt>
      <trkpt lat="48.71937" lon="2.09279">
        <ele>163.303</ele>
        <time>2013-08-06T16:07:43Z</time>
      </trkpt>
      <trkpt lat="48.71945" lon="2.09316">
        <ele>163.881</ele>
        <time>2013-08-06T16:07:49Z</time>
      </trkpt>
      <trkpt lat="48.71955" lon="2.09315">
        <ele>164.169</ele>
        <time>2013-08-06T16:07:53Z</time>
      </trkpt>
      <trkpt lat="48.71958" lon="2.09314">
        <ele>164.163</ele>
        <time>2013-08-06T16:07:54Z</time>
      </trkpt>
      <trkpt lat="48.71987" lon="2.093">
        <ele>164.169</ele>
        <time>2013-08-06T16:08:01Z</time>
      </trkpt>
      <trkpt lat="48.71995" lon="2.09296">
        <ele>164.216</ele>
        <time>2013-08-06T16:08:03Z</time>
      </trkpt>
      <trkpt lat="48.72005" lon="2.09301">
        <ele>164.428</ele>
        <time>2013-08-06T16:08:06Z</time>
      </trkpt>
      <trkpt lat="48.72009" lon="2.09312">
        <ele>164.691</ele>
        <time>2013-08-06T16:08:08Z</time>
      </trkpt>
      <trkpt lat="48.72023" lon="2.09365">
        <ele>165.614</ele>
        <time>2013-08-06T16:08:17Z</time>
      </trkpt>
      <trkpt lat="48.72026" lon="2.09386">
        <ele>166.061</ele>
        <time>2013-08-06T16:08:22Z</time>
      </trkpt>
      <trkpt lat="48.72028" lon="2.09391">
        <ele>166.387</ele>
        <time>2013-08-06T16:08:24Z</time>
      </trkpt>
      <trkpt lat="48.72038" lon="2.09393">
        <ele>166.532</ele>
        <time>2013-08-06T16:08:28Z</time>
      </trkpt>
      <trkpt lat="48.72065" lon="2.09373">
        <ele>166.919</ele>
        <time>2013-08-06T16:08:37Z</time>
      </trkpt>
      <trkpt lat="48.72075" lon="2.09381">
        <ele>167.025</ele>
        <time>2013-08-06T16:08:40Z</time>
      </trkpt>
      <trkpt lat="48.7211" lon="2.09414">
        <ele>167.515</ele>
        <time>2013-08-06T16:08:49Z</time>
      </trkpt>
      <trkpt lat="48.72142" lon="2.09447">
        <ele>167.709</ele>
        <time>2013-08-06T16:08:57Z</time>
      </trkpt>
      <trkpt lat="48.72169" lon="2.09478">
        <ele>167.734</ele>
        <time>2013-08-06T16:09:04Z</time>
      </trkpt>
      <trkpt lat="48.72198" lon="2.09507">
        <ele>167.471</ele>
        <time>2013-08-06T16:09:11Z</time>
      </trkpt>
      <trkpt lat="48.72206" lon="2.09517">
        <ele>167.323</ele>
        <time>2013-08-06T16:09:13Z</time>
      </trkpt>
      <trkpt lat="48.72224" lon="2.09534">
        <ele>167.024</ele>
        <time>2013-08-06T16:09:17Z</time>
      </trkpt>
      <trkpt lat="48.72271" lon="2.09583">
        <ele>165.891</ele>
        <time>2013-08-06T16:09:27Z</time>
      </trkpt>
      <trkpt lat="48.72317" lon="2.09629">
        <ele>164.97</ele>
        <time>2013-08-06T16:09:36Z</time>
      </trkpt>
      <trkpt lat="48.72353" lon="2.09664">
        <ele>164.404</ele>
        <time>2013-08-06T16:09:43Z</time>
      </trkpt>
      <trkpt lat="48.72379" lon="2.0969">
        <ele>163.717</ele>
        <time>2013-08-06T16:09:48Z</time>
      </trkpt>
      <trkpt lat="48.72388" lon="2.09722">
        <ele>163.146</ele>
        <time>2013-08-06T16:09:52Z</time>
      </trkpt>
      <trkpt lat="48.72387" lon="2.09731">
        <ele>163.102</ele>
        <time>2013-08-06T16:09:53Z</time>
      </trkpt>
      <trkpt lat="48.72371" lon="2.0982">
        <ele>163.641</ele>
        <time>2013-08-06T16:10:04Z</time>
      </trkpt>
      <trkpt lat="48.72365" lon="2.09861">
        <ele>163.887</ele>
        <time>2013-08-06T16:10:10Z</time>
      </trkpt>
      <trkpt lat="48.72363" lon="2.09899">
        <ele>163.994</ele>
        <time>2013-08-06T16:10:17Z</time>
      </trkpt>
      <trkpt lat="48.72361" lon="2.09899">
        <ele>164.177</ele>
        <time>2013-08-06T16:10:39Z</time>
      </trkpt>
      <trkpt lat="48.72362" lon="2.09898">
        <ele>164.115</ele>
        <time>2013-08-06T16:11:02Z</time>
      </trkpt>
    </trkseg>
  </trk>
</gpx>